Observation data for Adrian on 03/11/2018      Previous  Date  Next       Current Mesonet Observations  Soil Data  Daily Summary Page  Observations in Plain Language
KAD1 110600Z 04023KT 08/M07 A3012 RMK A01 T00791068  RH  035%=      5-min Rain = 0
KAD1 110601Z 03023KT 08/M07 A3012 RMK A01 T00791068  RH  035%=      5-min Rain = 0
KAD1 110602Z 04023KT 08/M07 A3012 RMK A01 T00791068  RH  035%=      5-min Rain = 0
KAD1 110603Z 04022KT 08/M07 A3012 RMK A01 T00791068  RH  035%=      5-min Rain = 0
KAD1 110604Z 04023G28KT 08/M07 A3012 RMK A01 T00791068  RH  035%=      5-min Rain = 0
KAD1 110605Z 03022KT 08/M07 A3012 RMK A01 T00791068  RH  035%=      5-min Rain = 0
KAD1 110606Z 03026KT 08/M07 A3012 RMK A01 T00791068  RH  035%=      5-min Rain = 0
KAD1 110607Z 03023KT 08/M07 A3012 RMK A01 T00791068  RH  035%=      5-min Rain = 0
KAD1 110608Z 04024KT 08/M07 A3013 RMK A01 T00791067  RH  035%=      5-min Rain = 0
KAD1 110609Z 03019G25KT 08/M07 A3013 RMK A01 T00791067  RH  035%=      5-min Rain = 0
KAD1 110610Z 04022G27KT 08/M07 A3012 RMK A01 T00781067  RH  035%=      5-min Rain = 0
KAD1 110611Z 04025KT 08/M07 A3012 RMK A01 T00781067  RH  035%=      5-min Rain = 0
KAD1 110612Z 04024KT 08/M07 A3013 RMK A01 T00781067  RH  035%=      5-min Rain = 0
KAD1 110613Z 03026KT 08/M07 A3012 RMK A01 T00781067  RH  035%=      5-min Rain = 0
KAD1 110614Z 04024KT 08/M07 A3012 RMK A01 T00781067  RH  035%=      5-min Rain = 0
KAD1 110615Z 04023KT 08/M07 A3012 RMK A01 T00781067  RH  035%=      5-min Rain = 0
KAD1 110616Z 04023G28KT 08/M07 A3012 RMK A01 T00781067  RH  035%=      5-min Rain = 0
KAD1 110617Z 04019KT 08/M07 A3013 RMK A01 T00781067  RH  035%=      5-min Rain = 0
KAD1 110618Z 04020KT 08/M07 A3013 RMK A01 T00771068  RH  035%=      5-min Rain = 0
KAD1 110619Z 04020G25KT 08/M07 A3013 RMK A01 T00771067  RH  035%=      5-min Rain = 0
KAD1 110620Z 04018KT 08/M07 A3013 RMK A01 T00761067  RH  035%=      5-min Rain = 0
KAD1 110621Z 04023G28KT 08/M07 A3013 RMK A01 T00761068  RH  035%=      5-min Rain = 0
KAD1 110622Z 04021KT 08/M07 A3013 RMK A01 T00761068  RH  035%=      5-min Rain = 0
KAD1 110623Z 04017KT 08/M07 A3013 RMK A01 T00761068  RH  035%=      5-min Rain = 0
KAD1 110624Z 04020KT 08/M07 A3013 RMK A01 T00761068  RH  035%=      5-min Rain = 0
KAD1 110625Z 04018G23KT 08/M07 A3013 RMK A01 T00761067  RH  036%=      5-min Rain = 0
KAD1 110626Z 04020KT 08/M07 A3013 RMK A01 T00761067  RH  035%=      5-min Rain = 0
KAD1 110627Z 03021KT 08/M07 A3013 RMK A01 T00761067  RH  036%=      5-min Rain = 0
KAD1 110628Z 04020KT 08/M07 A3013 RMK A01 T00751068  RH  035%=      5-min Rain = 0
KAD1 110629Z 04016KT 08/M07 A3013 RMK A01 T00751068  RH  035%=      5-min Rain = 0
KAD1 110630Z 04015KT 08/M07 A3013 RMK A01 T00751068  RH  036%=      5-min Rain = 0
KAD1 110631Z 03019KT 07/M07 A3013 RMK A01 T00741068  RH  036%=      5-min Rain = 0
KAD1 110632Z 03018KT 07/M07 A3013 RMK A01 T00741068  RH  036%=      5-min Rain = 0
KAD1 110633Z 04016KT 07/M07 A3013 RMK A01 T00741068  RH  036%=      5-min Rain = 0
KAD1 110634Z 04017G22KT 07/M07 A3013 RMK A01 T00741068  RH  036%=      5-min Rain = 0
KAD1 110635Z 04017KT 07/M07 A3014 RMK A01 T00741067  RH  036%=      5-min Rain = 0
KAD1 110636Z 04019KT 07/M07 A3014 RMK A01 T00731067  RH  036%=      5-min Rain = 0
KAD1 110637Z 04019KT 07/M07 A3014 RMK A01 T00731067  RH  036%=      5-min Rain = 0
KAD1 110638Z 04018KT 07/M07 A3014 RMK A01 T00741066  RH  036%=      5-min Rain = 0
KAD1 110639Z 04016KT 07/M07 A3014 RMK A01 T00741067  RH  036%=      5-min Rain = 0
KAD1 110640Z 04018KT 07/M07 A3014 RMK A01 T00731067  RH  036%=      5-min Rain = 0
KAD1 110641Z 04018KT 07/M07 A3014 RMK A01 T00731067  RH  036%=      5-min Rain = 0
KAD1 110642Z 03016KT 07/M07 A3014 RMK A01 T00731067  RH  036%=      5-min Rain = 0
KAD1 110643Z 03017KT 07/M07 A3014 RMK A01 T00731067  RH  036%=      5-min Rain = 0
KAD1 110644Z 04015KT 07/M07 A3014 RMK A01 T00731066  RH  036%=      5-min Rain = 0
KAD1 110645Z 04016KT 07/M07 A3014 RMK A01 T00721067  RH  037%=      5-min Rain = 0
KAD1 110646Z 04017KT 07/M07 A3014 RMK A01 T00721067  RH  037%=      5-min Rain = 0
KAD1 110647Z 03014KT 07/M07 A3014 RMK A01 T00721067  RH  037%=      5-min Rain = 0
KAD1 110648Z 04017KT 07/M07 A3014 RMK A01 T00721067  RH  037%=      5-min Rain = 0
KAD1 110649Z 03017KT 07/M07 A3014 RMK A01 T00721066  RH  037%=      5-min Rain = 0
KAD1 110650Z 04017G22KT 07/M07 A3014 RMK A01 T00721066  RH  037%=      5-min Rain = 0
KAD1 110651Z 03019KT 07/M07 A3014 RMK A01 T00721066  RH  037%=      5-min Rain = 0
KAD1 110652Z 04017KT 07/M07 A3014 RMK A01 T00721066  RH  037%=      5-min Rain = 0
KAD1 110653Z 04014KT 07/M07 A3014 RMK A01 T00721067  RH  037%=      5-min Rain = 0
KAD1 110654Z 03016KT 07/M07 A3014 RMK A01 T00711067  RH  037%=      5-min Rain = 0
KAD1 110655Z 04018KT 07/M07 A3014 RMK A01 T00711067  RH  037%=      5-min Rain = 0
KAD1 110656Z 04019KT 07/M07 A3014 RMK A01 T00711066  RH  037%=      5-min Rain = 0
KAD1 110657Z 04019KT 07/M07 A3014 RMK A01 T00711066  RH  037%=      5-min Rain = 0
KAD1 110658Z 03016KT 07/M07 A3014 RMK A01 T00721066  RH  037%=      5-min Rain = 0
KAD1 110659Z 04018KT 07/M07 A3014 RMK A01 T00721066  RH  037%=      5-min Rain = 0
KAD1 110700Z 04017KT 07/M07 A3014 RMK A01 T00711067  RH  037%=      5-min Rain = 0
KAD1 110701Z 04016KT 07/M07 A3014 RMK A01 T00711066  RH  037%=      5-min Rain = 0
KAD1 110702Z 03018KT 07/M07 A3014 RMK A01 T00711067  RH  037%=      5-min Rain = 0
KAD1 110703Z 03015KT 07/M07 A3014 RMK A01 T00711067  RH  037%=      5-min Rain = 0
KAD1 110704Z 03014KT 07/M07 A3014 RMK A01 T00701067  RH  037%=      5-min Rain = 0
KAD1 110705Z 03016KT 07/M07 A3014 RMK A01 T00701067  RH  037%=      5-min Rain = 0
KAD1 110706Z 03016KT 07/M07 A3015 RMK A01 T00701067  RH  037%=      5-min Rain = 0
KAD1 110707Z 03014KT 07/M07 A3015 RMK A01 T00701066  RH  037%=      5-min Rain = 0
KAD1 110708Z 03016KT 07/M07 A3015 RMK A01 T00701067  RH  037%=      5-min Rain = 0
KAD1 110709Z 03015G20KT 07/M07 A3015 RMK A01 T00701067  RH  037%=      5-min Rain = 0
KAD1 110710Z 03014KT 07/M07 A3015 RMK A01 T00701067  RH  037%=      5-min Rain = 0
KAD1 110711Z 03016KT 07/M07 A3015 RMK A01 T00701067  RH  037%=      5-min Rain = 0
KAD1 110712Z 03016KT 07/M07 A3015 RMK A01 T00691067  RH  037%=      5-min Rain = 0
KAD1 110713Z 03016KT 07/M07 A3015 RMK A01 T00701067  RH  037%=      5-min Rain = 0
KAD1 110714Z 03014KT 07/M07 A3015 RMK A01 T00701067  RH  037%=      5-min Rain = 0
KAD1 110715Z 04012KT 07/M07 A3015 RMK A01 T00701067  RH  037%=      5-min Rain = 0
KAD1 110716Z 04015KT 07/M07 A3015 RMK A01 T00691067  RH  037%=      5-min Rain = 0
KAD1 110717Z 03014KT 07/M07 A3015 RMK A01 T00681067  RH  037%=      5-min Rain = 0
KAD1 110718Z 03014KT 07/M07 A3015 RMK A01 T00681068  RH  037%=      5-min Rain = 0
KAD1 110719Z 03018KT 07/M07 A3015 RMK A01 T00681067  RH  037%=      5-min Rain = 0
KAD1 110720Z 04019KT 07/M07 A3015 RMK A01 T00691067  RH  037%=      5-min Rain = 0
KAD1 110721Z 04018KT 07/M07 A3015 RMK A01 T00701067  RH  037%=      5-min Rain = 0
KAD1 110722Z 04016KT 07/M07 A3015 RMK A01 T00701067  RH  037%=      5-min Rain = 0
KAD1 110723Z 03017KT 07/M07 A3015 RMK A01 T00701068  RH  037%=      5-min Rain = 0
KAD1 110724Z 03016KT 07/M07 A3015 RMK A01 T00701067  RH  037%=      5-min Rain = 0
KAD1 110725Z 04015KT 07/M07 A3015 RMK A01 T00691068  RH  037%=      5-min Rain = 0
KAD1 110726Z 03013KT 07/M07 A3015 RMK A01 T00691068  RH  037%=      5-min Rain = 0
KAD1 110727Z 03016KT 07/M07 A3015 RMK A01 T00671069  RH  037%=      5-min Rain = 0
KAD1 110728Z 03017KT 07/M07 A3015 RMK A01 T00681068  RH  037%=      5-min Rain = 0
KAD1 110729Z 03014KT 07/M07 A3015 RMK A01 T00691069  RH  037%=      5-min Rain = 0
KAD1 110730Z 03016G21KT 07/M07 A3015 RMK A01 T00681069  RH  037%=      5-min Rain = 0
KAD1 110731Z 03016KT 07/M07 A3015 RMK A01 T00681070  RH  037%=      5-min Rain = 0
KAD1 110732Z 03017KT 07/M07 A3015 RMK A01 T00681070  RH  037%=      5-min Rain = 0
KAD1 110733Z 03015KT 07/M07 A3015 RMK A01 T00681070  RH  037%=      5-min Rain = 0
KAD1 110734Z 03013KT 07/M07 A3015 RMK A01 T00681070  RH  037%=      5-min Rain = 0
KAD1 110735Z 03016KT 07/M07 A3015 RMK A01 T00671070  RH  037%=      5-min Rain = 0
KAD1 110736Z 03017KT 07/M07 A3015 RMK A01 T00671071  RH  037%=      5-min Rain = 0
KAD1 110737Z 04016KT 07/M07 A3015 RMK A01 T00681071  RH  036%=      5-min Rain = 0
KAD1 110738Z 03015KT 07/M07 A3015 RMK A01 T00681071  RH  037%=      5-min Rain = 0
KAD1 110739Z 04017KT 07/M07 A3015 RMK A01 T00681071  RH  037%=      5-min Rain = 0
KAD1 110740Z 03016G21KT 07/M07 A3015 RMK A01 T00681071  RH  036%=      5-min Rain = 0
KAD1 110741Z 03018KT 07/M07 A3015 RMK A01 T00681071  RH  036%=      5-min Rain = 0
KAD1 110742Z 03016KT 07/M07 A3016 RMK A01 T00681072  RH  036%=      5-min Rain = 0
KAD1 110743Z 03015KT 07/M07 A3016 RMK A01 T00681072  RH  036%=      5-min Rain = 0
KAD1 110744Z 04015KT 07/M07 A3016 RMK A01 T00671072  RH  036%=      5-min Rain = 0
KAD1 110745Z 04015KT 07/M07 A3016 RMK A01 T00671072  RH  036%=      5-min Rain = 0
KAD1 110746Z 03015KT 07/M07 A3016 RMK A01 T00671072  RH  036%=      5-min Rain = 0
KAD1 110747Z 04014KT 07/M07 A3016 RMK A01 T00671072  RH  036%=      5-min Rain = 0
KAD1 110748Z 03016KT 07/M07 A3015 RMK A01 T00671073  RH  036%=      5-min Rain = 0
KAD1 110749Z 03016KT 07/M07 A3015 RMK A01 T00661073  RH  036%=      5-min Rain = 0
KAD1 110750Z 04016KT 07/M07 A3015 RMK A01 T00671073  RH  036%=      5-min Rain = 0
KAD1 110751Z 03016KT 07/M07 A3015 RMK A01 T00661073  RH  036%=      5-min Rain = 0
KAD1 110752Z 04014KT 07/M07 A3016 RMK A01 T00671073  RH  036%=      5-min Rain = 0
KAD1 110753Z 04014KT 07/M07 A3016 RMK A01 T00661073  RH  036%=      5-min Rain = 0
KAD1 110754Z 03013KT 07/M07 A3016 RMK A01 T00661073  RH  036%=      5-min Rain = 0
KAD1 110755Z 04015KT 07/M07 A3016 RMK A01 T00651073  RH  036%=      5-min Rain = 0
KAD1 110756Z 04014KT 07/M07 A3016 RMK A01 T00661073  RH  036%=      5-min Rain = 0
KAD1 110757Z 03013KT 07/M07 A3016 RMK A01 T00661073  RH  036%=      5-min Rain = 0
KAD1 110758Z 03015KT 07/M07 A3016 RMK A01 T00651074  RH  036%=      5-min Rain = 0
KAD1 110759Z 04015KT 07/M07 A3016 RMK A01 T00651074  RH  036%=      5-min Rain = 0
KAD1 110800Z 03014KT 07/M07 A3016 RMK A01 T00651074  RH  036%=      5-min Rain = 0
KAD1 110801Z 03014KT 07/M07 A3016 RMK A01 T00651074  RH  036%=      5-min Rain = 0
KAD1 110802Z 03011KT 07/M07 A3016 RMK A01 T00651074  RH  036%=      5-min Rain = 0
KAD1 110803Z 03011KT 06/M07 A3016 RMK A01 T00641074  RH  036%=      5-min Rain = 0
KAD1 110804Z 03015KT 06/M07 A3017 RMK A01 T00641074  RH  037%=      5-min Rain = 0
KAD1 110805Z 04015KT 06/M07 A3016 RMK A01 T00641074  RH  037%=      5-min Rain = 0
KAD1 110806Z 03015KT 07/M07 A3017 RMK A01 T00651074  RH  036%=      5-min Rain = 0
KAD1 110807Z 03013KT 06/M07 A3017 RMK A01 T00641074  RH  036%=      5-min Rain = 0
KAD1 110808Z 03013KT 07/M07 A3017 RMK A01 T00651074  RH  036%=      5-min Rain = 0
KAD1 110809Z 03011KT 06/M08 A3017 RMK A01 T00641075  RH  036%=      5-min Rain = 0
KAD1 110810Z 03013KT 06/M08 A3017 RMK A01 T00631075  RH  037%=      5-min Rain = 0
KAD1 110811Z 03013KT 06/M08 A3017 RMK A01 T00631075  RH  037%=      5-min Rain = 0
KAD1 110812Z 03013KT 06/M08 A3017 RMK A01 T00621075  RH  037%=      5-min Rain = 0
KAD1 110813Z 03012KT 06/M07 A3017 RMK A01 T00631074  RH  037%=      5-min Rain = 0
KAD1 110814Z 03014KT 06/M08 A3017 RMK A01 T00631075  RH  037%=      5-min Rain = 0
KAD1 110815Z 03016KT 06/M08 A3017 RMK A01 T00631075  RH  037%=      5-min Rain = 0
KAD1 110816Z 03015KT 06/M08 A3017 RMK A01 T00631075  RH  037%=      5-min Rain = 0
KAD1 110817Z 03014KT 06/M07 A3017 RMK A01 T00641074  RH  036%=      5-min Rain = 0
KAD1 110818Z 03013KT 06/M08 A3017 RMK A01 T00641075  RH  036%=      5-min Rain = 0
KAD1 110819Z 03014KT 06/M07 A3017 RMK A01 T00641074  RH  037%=      5-min Rain = 0
KAD1 110820Z 03016KT 06/M08 A3017 RMK A01 T00621075  RH  037%=      5-min Rain = 0
KAD1 110821Z 03014KT 06/M08 A3017 RMK A01 T00631075  RH  037%=      5-min Rain = 0
KAD1 110822Z 03015KT 06/M08 A3017 RMK A01 T00631075  RH  036%=      5-min Rain = 0
KAD1 110823Z 02017KT 06/M08 A3017 RMK A01 T00631075  RH  036%=      5-min Rain = 0
KAD1 110824Z 03015KT 06/M08 A3017 RMK A01 T00631075  RH  036%=      5-min Rain = 0
KAD1 110825Z 03014KT 06/M08 A3017 RMK A01 T00631076  RH  036%=      5-min Rain = 0
KAD1 110826Z 03014KT 06/M08 A3017 RMK A01 T00621076  RH  036%=      5-min Rain = 0
KAD1 110827Z 03013KT 06/M08 A3017 RMK A01 T00621076  RH  036%=      5-min Rain = 0
KAD1 110828Z 03015KT 06/M08 A3018 RMK A01 T00621076  RH  036%=      5-min Rain = 0
KAD1 110829Z 03015G20KT 06/M08 A3018 RMK A01 T00621076  RH  037%=      5-min Rain = 0
KAD1 110830Z 03015KT 06/M08 A3017 RMK A01 T00621076  RH  036%=      5-min Rain = 0
KAD1 110831Z 03014KT 06/M08 A3018 RMK A01 T00621077  RH  036%=      5-min Rain = 0
KAD1 110832Z 03014KT 06/M08 A3018 RMK A01 T00621077  RH  036%=      5-min Rain = 0
KAD1 110833Z 03014KT 06/M08 A3018 RMK A01 T00621077  RH  036%=      5-min Rain = 0
KAD1 110834Z 03017KT 06/M08 A3018 RMK A01 T00611077  RH  036%=      5-min Rain = 0
KAD1 110835Z 02014KT 06/M08 A3018 RMK A01 T00611077  RH  036%=      5-min Rain = 0
KAD1 110836Z 03014KT 06/M08 A3018 RMK A01 T00611077  RH  036%=      5-min Rain = 0
KAD1 110837Z 03013KT 06/M08 A3018 RMK A01 T00611077  RH  037%=      5-min Rain = 0
KAD1 110838Z 03015KT 06/M08 A3018 RMK A01 T00601077  RH  037%=      5-min Rain = 0
KAD1 110839Z 03015KT 06/M08 A3018 RMK A01 T00601077  RH  037%=      5-min Rain = 0
KAD1 110840Z 02016KT 06/M08 A3018 RMK A01 T00601077  RH  037%=      5-min Rain = 0
KAD1 110841Z 03016KT 06/M08 A3018 RMK A01 T00601076  RH  037%=      5-min Rain = 0
KAD1 110842Z 03015KT 06/M08 A3018 RMK A01 T00601076  RH  037%=      5-min Rain = 0
KAD1 110843Z 02016KT 06/M08 A3018 RMK A01 T00601076  RH  037%=      5-min Rain = 0
KAD1 110844Z 03016KT 06/M08 A3018 RMK A01 T00601076  RH  037%=      5-min Rain = 0
KAD1 110845Z 02016KT 06/M08 A3018 RMK A01 T00601076  RH  037%=      5-min Rain = 0
KAD1 110846Z 02016KT 06/M08 A3018 RMK A01 T00601076  RH  037%=      5-min Rain = 0
KAD1 110847Z 02016KT 06/M08 A3018 RMK A01 T00601076  RH  037%=      5-min Rain = 0
KAD1 110848Z 02014KT 06/M08 A3018 RMK A01 T00601075  RH  037%=      5-min Rain = 0
KAD1 110849Z 02016KT 06/M08 A3018 RMK A01 T00591076  RH  037%=      5-min Rain = 0
KAD1 110850Z 03019G24KT 06/M08 A3018 RMK A01 T00591077  RH  037%=      5-min Rain = 0
KAD1 110851Z 03017KT 06/M08 A3018 RMK A01 T00591077  RH  037%=      5-min Rain = 0
KAD1 110852Z 03018KT 06/M08 A3018 RMK A01 T00591077  RH  037%=      5-min Rain = 0
KAD1 110853Z 03019KT 06/M08 A3018 RMK A01 T00581078  RH  037%=      5-min Rain = 0
KAD1 110854Z 02018KT 06/M08 A3018 RMK A01 T00581078  RH  037%=      5-min Rain = 0
KAD1 110855Z 02018KT 06/M08 A3018 RMK A01 T00581078  RH  037%=      5-min Rain = 0
KAD1 110856Z 03019KT 06/M08 A3018 RMK A01 T00571078  RH  037%=      5-min Rain = 0
KAD1 110857Z 02021KT 06/M08 A3018 RMK A01 T00571079  RH  037%=      5-min Rain = 0
KAD1 110858Z 03022KT 06/M08 A3018 RMK A01 T00571080  RH  037%=      5-min Rain = 0
KAD1 110859Z 03021KT 06/M08 A3017 RMK A01 T00571080  RH  036%=      5-min Rain = 0
KAD1 110900Z 03019KT 06/M08 A3018 RMK A01 T00571081  RH  036%=      5-min Rain = 0
KAD1 110901Z 02019KT 06/M08 A3018 RMK A01 T00571081  RH  036%=      5-min Rain = 0
KAD1 110902Z 03019KT 06/M08 A3018 RMK A01 T00561081  RH  036%=      5-min Rain = 0
KAD1 110903Z 03019G24KT 06/M08 A3018 RMK A01 T00551082  RH  036%=      5-min Rain = 0
KAD1 110904Z 03020KT 06/M08 A3018 RMK A01 T00551082  RH  036%=      5-min Rain = 0
KAD1 110905Z 03021KT 06/M08 A3018 RMK A01 T00551082  RH  037%=      5-min Rain = 0
KAD1 110906Z 03019KT 06/M08 A3018 RMK A01 T00551082  RH  037%=      5-min Rain = 0
KAD1 110907Z 03019KT 05/M08 A3018 RMK A01 T00541083  RH  037%=      5-min Rain = 0
KAD1 110908Z 03019KT 05/M08 A3018 RMK A01 T00541083  RH  037%=      5-min Rain = 0
KAD1 110909Z 03020KT 05/M08 A3018 RMK A01 T00541083  RH  037%=      5-min Rain = 0
KAD1 110910Z 02019KT 05/M08 A3018 RMK A01 T00531083  RH  037%=      5-min Rain = 0
KAD1 110911Z 03017KT 05/M08 A3018 RMK A01 T00531084  RH  037%=      5-min Rain = 0
KAD1 110912Z 03019G24KT 05/M08 A3018 RMK A01 T00531084  RH  037%=      5-min Rain = 0
KAD1 110913Z 03021G26KT 05/M08 A3018 RMK A01 T00521084  RH  037%=      5-min Rain = 0
KAD1 110914Z 03022KT 05/M08 A3018 RMK A01 T00521084  RH  037%=      5-min Rain = 0
KAD1 110915Z 03019KT 05/M08 A3018 RMK A01 T00521084  RH  037%=      5-min Rain = 0
KAD1 110916Z 03018KT 05/M08 A3018 RMK A01 T00521084  RH  037%=      5-min Rain = 0
KAD1 110917Z 03019G24KT 05/M09 A3018 RMK A01 T00511085  RH  037%=      5-min Rain = 0
KAD1 110918Z 03019KT 05/M09 A3018 RMK A01 T00511085  RH  037%=      5-min Rain = 0
KAD1 110919Z 03021KT 05/M09 A3018 RMK A01 T00501085  RH  037%=      5-min Rain = 0
KAD1 110920Z 02020KT 05/M09 A3018 RMK A01 T00501086  RH  037%=      5-min Rain = 0
KAD1 110921Z 03021KT 05/M09 A3018 RMK A01 T00501086  RH  037%=      5-min Rain = 0
KAD1 110922Z 03019G25KT 05/M09 A3018 RMK A01 T00501086  RH  037%=      5-min Rain = 0
KAD1 110923Z 03019G25KT 05/M09 A3018 RMK A01 T00491086  RH  037%=      5-min Rain = 0
KAD1 110924Z 03019KT 05/M09 A3018 RMK A01 T00491086  RH  037%=      5-min Rain = 0
KAD1 110925Z 02016KT 05/M09 A3018 RMK A01 T00481087  RH  037%=      5-min Rain = 0
KAD1 110926Z 02016KT 05/M09 A3018 RMK A01 T00481086  RH  037%=      5-min Rain = 0
KAD1 110927Z 03018KT 05/M09 A3018 RMK A01 T00481087  RH  037%=      5-min Rain = 0
KAD1 110928Z 02020KT 05/M09 A3018 RMK A01 T00471087  RH  037%=      5-min Rain = 0
KAD1 110929Z 03016KT 05/M09 A3018 RMK A01 T00471087  RH  037%=      5-min Rain = 0
KAD1 110930Z 02014KT 05/M09 A3018 RMK A01 T00471087  RH  037%=      5-min Rain = 0
KAD1 110931Z 02014G19KT 05/M09 A3019 RMK A01 T00461087  RH  037%=      5-min Rain = 0
KAD1 110932Z 02016KT 05/M09 A3019 RMK A01 T00461087  RH  037%=      5-min Rain = 0
KAD1 110933Z 02015G20KT 05/M09 A3019 RMK A01 T00451087  RH  038%=      5-min Rain = 0
KAD1 110934Z 02019KT 05/M09 A3019 RMK A01 T00451087  RH  038%=      5-min Rain = 0
KAD1 110935Z 02015KT 05/M09 A3019 RMK A01 T00451087  RH  038%=      5-min Rain = 0
KAD1 110936Z 02016KT 05/M09 A3019 RMK A01 T00451088  RH  038%=      5-min Rain = 0
KAD1 110937Z 03016KT 04/M09 A3019 RMK A01 T00441088  RH  038%=      5-min Rain = 0
KAD1 110938Z 02017KT 04/M09 A3019 RMK A01 T00441088  RH  038%=      5-min Rain = 0
KAD1 110939Z 03018G23KT 04/M09 A3019 RMK A01 T00441088  RH  038%=      5-min Rain = 0
KAD1 110940Z 02019KT 04/M09 A3019 RMK A01 T00441088  RH  038%=      5-min Rain = 0
KAD1 110941Z 02019G24KT 04/M09 A3019 RMK A01 T00441089  RH  038%=      5-min Rain = 0
KAD1 110942Z 02018KT 04/M09 A3019 RMK A01 T00441089  RH  037%=      5-min Rain = 0
KAD1 110943Z 02019KT 04/M09 A3019 RMK A01 T00431090  RH  037%=      5-min Rain = 0
KAD1 110944Z 02018KT 04/M09 A3019 RMK A01 T00431090  RH  037%=      5-min Rain = 0
KAD1 110945Z 02020G25KT 04/M09 A3019 RMK A01 T00431091  RH  037%=      5-min Rain = 0
KAD1 110946Z 02021KT 04/M09 A3019 RMK A01 T00421091  RH  037%=      5-min Rain = 0
KAD1 110947Z 02020KT 04/M09 A3019 RMK A01 T00421091  RH  037%=      5-min Rain = 0
KAD1 110948Z 02020KT 04/M09 A3019 RMK A01 T00421091  RH  037%=      5-min Rain = 0
KAD1 110949Z 02017KT 04/M09 A3019 RMK A01 T00421091  RH  037%=      5-min Rain = 0
KAD1 110950Z 02015KT 04/M09 A3019 RMK A01 T00411091  RH  038%=      5-min Rain = 0
KAD1 110951Z 02016KT 04/M09 A3019 RMK A01 T00401091  RH  038%=      5-min Rain = 0
KAD1 110952Z 02017KT 04/M09 A3019 RMK A01 T00391091  RH  038%=      5-min Rain = 0
KAD1 110953Z 02017KT 04/M09 A3019 RMK A01 T00391091  RH  038%=      5-min Rain = 0
KAD1 110954Z 02021G27KT 04/M09 A3019 RMK A01 T00391091  RH  038%=      5-min Rain = 0
KAD1 110955Z 02018KT 04/M09 A3019 RMK A01 T00381093  RH  038%=      5-min Rain = 0
KAD1 110956Z 02020KT 04/M09 A3019 RMK A01 T00381093  RH  038%=      5-min Rain = 0
KAD1 110957Z 02018KT 04/M09 A3019 RMK A01 T00381093  RH  038%=      5-min Rain = 0
KAD1 110958Z 02019KT 04/M09 A3019 RMK A01 T00381094  RH  037%=      5-min Rain = 0
KAD1 110959Z 02021KT 04/M10 A3019 RMK A01 T00371095  RH  037%=      5-min Rain = 0
KAD1 111000Z 02019KT 04/M10 A3019 RMK A01 T00371095  RH  037%=      5-min Rain = 0
KAD1 111001Z 03017KT 04/M10 A3019 RMK A01 T00371096  RH  037%=      5-min Rain = 0
KAD1 111002Z 02018KT 04/M10 A3019 RMK A01 T00361097  RH  037%=      5-min Rain = 0
KAD1 111003Z 02022KT 04/M10 A3019 RMK A01 T00361097  RH  037%=      5-min Rain = 0
KAD1 111004Z 03019KT 04/M10 A3019 RMK A01 T00361097  RH  037%=      5-min Rain = 0
KAD1 111005Z 02017KT 04/M10 A302 RMK A01 T00361096  RH  037%=      5-min Rain = 0
KAD1 111006Z 03017KT 04/M10 A3019 RMK A01 T00351096  RH  037%=      5-min Rain = 0
KAD1 111007Z 03019G26KT 03/M10 A3019 RMK A01 T00341097  RH  038%=      5-min Rain = 0
KAD1 111008Z 02021KT 03/M10 A3019 RMK A01 T00341098  RH  037%=      5-min Rain = 0
KAD1 111009Z 03021KT 03/M10 A3019 RMK A01 T00341099  RH  037%=      5-min Rain = 0
KAD1 111010Z 03020G25KT 03/M10 A3019 RMK A01 T00341099  RH  037%=      5-min Rain = 0
KAD1 111011Z 02023KT 03/M10 A3019 RMK A01 T00341099  RH  037%=      5-min Rain = 0
KAD1 111012Z 03020KT 04/M10 A302 RMK A01 T00351100  RH  037%=      5-min Rain = 0
KAD1 111013Z 02020KT 04/M10 A302 RMK A01 T00351100  RH  037%=      5-min Rain = 0
KAD1 111014Z 02018KT 03/M10 A302 RMK A01 T00341100  RH  037%=      5-min Rain = 0
KAD1 111015Z 02019KT 03/M10 A302 RMK A01 T00341100  RH  037%=      5-min Rain = 0
KAD1 111016Z 02019KT 03/M10 A302 RMK A01 T00341100  RH  037%=      5-min Rain = 0
KAD1 111017Z 02018KT 03/M10 A302 RMK A01 T00341099  RH  037%=      5-min Rain = 0
KAD1 111018Z 03018KT 03/M10 A302 RMK A01 T00331100  RH  037%=      5-min Rain = 0
KAD1 111019Z 02015KT 03/M10 A302 RMK A01 T00331099  RH  037%=      5-min Rain = 0
KAD1 111020Z 02017KT 03/M10 A302 RMK A01 T00331100  RH  037%=      5-min Rain = 0
KAD1 111021Z 02015KT 03/M10 A302 RMK A01 T00331099  RH  037%=      5-min Rain = 0
KAD1 111022Z 02017KT 03/M10 A302 RMK A01 T00321099  RH  037%=      5-min Rain = 0
KAD1 111023Z 02016KT 03/M10 A302 RMK A01 T00321099  RH  037%=      5-min Rain = 0
KAD1 111024Z 02016KT 03/M10 A302 RMK A01 T00331099  RH  037%=      5-min Rain = 0
KAD1 111025Z 02015KT 03/M10 A302 RMK A01 T00321099  RH  038%=      5-min Rain = 0
KAD1 111026Z 03015KT 03/M10 A302 RMK A01 T00311100  RH  038%=      5-min Rain = 0
KAD1 111027Z 02017KT 03/M10 A302 RMK A01 T00311100  RH  038%=      5-min Rain = 0
KAD1 111028Z 03013KT 03/M10 A302 RMK A01 T00311100  RH  037%=      5-min Rain = 0
KAD1 111029Z 02015G20KT 03/M10 A302 RMK A01 T00311100  RH  037%=      5-min Rain = 0
KAD1 111030Z 03016KT 03/M10 A302 RMK A01 T00311101  RH  037%=      5-min Rain = 0
KAD1 111031Z 02016KT 03/M10 A302 RMK A01 T00311101  RH  037%=      5-min Rain = 0
KAD1 111032Z 02014KT 03/M10 A3021 RMK A01 T00311102  RH  037%=      5-min Rain = 0
KAD1 111033Z 02017KT 03/M10 A3021 RMK A01 T00311102  RH  037%=      5-min Rain = 0
KAD1 111034Z 02015KT 03/M10 A3021 RMK A01 T00311102  RH  037%=      5-min Rain = 0
KAD1 111035Z 02016KT 03/M10 A3021 RMK A01 T00311102  RH  037%=      5-min Rain = 0
KAD1 111036Z 02015KT 03/M10 A3021 RMK A01 T00311102  RH  037%=      5-min Rain = 0
KAD1 111037Z 02013KT 03/M10 A3021 RMK A01 T00311103  RH  037%=      5-min Rain = 0
KAD1 111038Z 02014KT 03/M10 A3021 RMK A01 T00311103  RH  037%=      5-min Rain = 0
KAD1 111039Z 02016KT 03/M10 A3021 RMK A01 T00311103  RH  037%=      5-min Rain = 0
KAD1 111040Z 02016KT 03/M10 A3021 RMK A01 T00301104  RH  037%=      5-min Rain = 0
KAD1 111041Z 02017KT 03/M10 A3021 RMK A01 T00311104  RH  037%=      5-min Rain = 0
KAD1 111042Z 03016KT 03/M10 A3021 RMK A01 T00301104  RH  037%=      5-min Rain = 0
KAD1 111043Z 02016KT 03/M10 A3021 RMK A01 T00301104  RH  037%=      5-min Rain = 0
KAD1 111044Z 02016KT 03/M10 A3021 RMK A01 T00301104  RH  036%=      5-min Rain = 0
KAD1 111045Z 02015KT 03/M11 A3021 RMK A01 T00301105  RH  036%=      5-min Rain = 0
KAD1 111046Z 02014KT 03/M11 A3021 RMK A01 T00301105  RH  037%=      5-min Rain = 0
KAD1 111047Z 02016KT 03/M11 A3021 RMK A01 T00291105  RH  037%=      5-min Rain = 0
KAD1 111048Z 02015KT 03/M11 A3021 RMK A01 T00291105  RH  037%=      5-min Rain = 0
KAD1 111049Z 02015KT 03/M11 A3021 RMK A01 T00291105  RH  037%=      5-min Rain = 0
KAD1 111050Z 02018KT 03/M11 A3021 RMK A01 T00291105  RH  036%=      5-min Rain = 0
KAD1 111051Z 02015KT 03/M11 A3021 RMK A01 T00291105  RH  036%=      5-min Rain = 0
KAD1 111052Z 02017KT 03/M11 A3021 RMK A01 T00291106  RH  036%=      5-min Rain = 0
KAD1 111053Z 03017KT 03/M11 A3021 RMK A01 T00281106  RH  037%=      5-min Rain = 0
KAD1 111054Z 02014KT 03/M11 A3021 RMK A01 T00281106  RH  037%=      5-min Rain = 0
KAD1 111055Z 02017KT 03/M11 A3021 RMK A01 T00281106  RH  037%=      5-min Rain = 0
KAD1 111056Z 02015KT 03/M11 A3021 RMK A01 T00271106  RH  037%=      5-min Rain = 0
KAD1 111057Z 02016KT 03/M11 A3021 RMK A01 T00271106  RH  037%=      5-min Rain = 0
KAD1 111058Z 03016KT 03/M11 A3021 RMK A01 T00271106  RH  037%=      5-min Rain = 0
KAD1 111059Z 03016KT 03/M11 A3021 RMK A01 T00261106  RH  037%=      5-min Rain = 0
KAD1 111100Z 03017KT 03/M11 A3021 RMK A01 T00271105  RH  037%=      5-min Rain = 0
KAD1 111101Z 03015G20KT 03/M11 A3021 RMK A01 T00261105  RH  037%=      5-min Rain = 0
KAD1 111102Z 02014KT 03/M11 A3021 RMK A01 T00271105  RH  037%=      5-min Rain = 0
KAD1 111103Z 02015KT 03/M11 A3021 RMK A01 T00261106  RH  037%=      5-min Rain = 0
KAD1 111104Z 02016KT 03/M11 A3021 RMK A01 T00261105  RH  037%=      5-min Rain = 0
KAD1 111105Z 02013KT 03/M11 A3021 RMK A01 T00261105  RH  037%=      5-min Rain = 0
KAD1 111106Z 03014KT 03/M11 A3021 RMK A01 T00261105  RH  037%=      5-min Rain = 0
KAD1 111107Z 02013KT 03/M11 A3021 RMK A01 T00261105  RH  038%=      5-min Rain = 0
KAD1 111108Z 02014G19KT 03/M11 A3021 RMK A01 T00251105  RH  038%=      5-min Rain = 0
KAD1 111109Z 02018G23KT 03/M11 A3021 RMK A01 T00251105  RH  038%=      5-min Rain = 0
KAD1 111110Z 02015KT 03/M11 A3021 RMK A01 T00251105  RH  038%=      5-min Rain = 0
KAD1 111111Z 03018KT 03/M10 A3021 RMK A01 T00251104  RH  038%=      5-min Rain = 0
KAD1 111112Z 03017KT 03/M10 A3021 RMK A01 T00251104  RH  038%=      5-min Rain = 0
KAD1 111113Z 03017KT 03/M10 A3021 RMK A01 T00251104  RH  038%=      5-min Rain = 0
KAD1 111114Z 03017KT 03/M10 A3021 RMK A01 T00251103  RH  038%=      5-min Rain = 0
KAD1 111115Z 03017KT 03/M10 A3022 RMK A01 T00251103  RH  038%=      5-min Rain = 0
KAD1 111116Z 02017KT 03/M10 A3022 RMK A01 T00251102  RH  038%=      5-min Rain = 0
KAD1 111117Z 03015KT 03/M10 A3022 RMK A01 T00251102  RH  038%=      5-min Rain = 0
KAD1 111118Z 03014G19KT 02/M10 A3022 RMK A01 T00241103  RH  039%=      5-min Rain = 0
KAD1 111119Z 03017KT 02/M10 A3022 RMK A01 T00241103  RH  039%=      5-min Rain = 0
KAD1 111120Z 03014KT 02/M10 A3022 RMK A01 T00241103  RH  039%=      5-min Rain = 0
KAD1 111121Z 02015KT 02/M10 A3022 RMK A01 T00241103  RH  039%=      5-min Rain = 0
KAD1 111122Z 03016KT 02/M10 A3022 RMK A01 T00231103  RH  039%=      5-min Rain = 0
KAD1 111123Z 03016KT 02/M10 A3022 RMK A01 T00241102  RH  039%=      5-min Rain = 0
KAD1 111124Z 02017KT 02/M10 A3022 RMK A01 T00241103  RH  039%=      5-min Rain = 0
KAD1 111125Z 02016KT 02/M10 A3022 RMK A01 T00231103  RH  039%=      5-min Rain = 0
KAD1 111126Z 02015KT 02/M10 A3022 RMK A01 T00241102  RH  039%=      5-min Rain = 0
KAD1 111127Z 02015KT 02/M10 A3022 RMK A01 T00231102  RH  039%=      5-min Rain = 0
KAD1 111128Z 03016KT 02/M10 A3022 RMK A01 T00231102  RH  039%=      5-min Rain = 0
KAD1 111129Z 03014KT 02/M10 A3022 RMK A01 T00231101  RH  039%=      5-min Rain = 0
KAD1 111130Z 02015KT 02/M10 A3022 RMK A01 T00231101  RH  039%=      5-min Rain = 0
KAD1 111131Z 02015KT 02/M10 A3022 RMK A01 T00231101  RH  040%=      5-min Rain = 0
KAD1 111132Z 03015KT 02/M10 A3022 RMK A01 T00231101  RH  040%=      5-min Rain = 0
KAD1 111133Z 02016KT 02/M10 A3022 RMK A01 T00221101  RH  040%=      5-min Rain = 0
KAD1 111134Z 03017KT 02/M10 A3022 RMK A01 T00221100  RH  040%=      5-min Rain = 0
KAD1 111135Z 03019KT 02/M10 A3022 RMK A01 T00221100  RH  040%=      5-min Rain = 0
KAD1 111136Z 03015G20KT 02/M10 A3022 RMK A01 T00221100  RH  040%=      5-min Rain = 0
KAD1 111137Z 03015KT 02/M10 A3022 RMK A01 T00221099  RH  040%=      5-min Rain = 0
KAD1 111138Z 03015KT 02/M10 A3022 RMK A01 T00221099  RH  040%=      5-min Rain = 0
KAD1 111139Z 03013G18KT 02/M10 A3023 RMK A01 T00221099  RH  040%=      5-min Rain = 0
KAD1 111140Z 02014KT 02/M10 A3023 RMK A01 T00221100  RH  040%=      5-min Rain = 0
KAD1 111141Z 02014KT 02/M10 A3023 RMK A01 T00221100  RH  040%=      5-min Rain = 0
KAD1 111142Z 02013KT 02/M10 A3023 RMK A01 T00211100  RH  040%=      5-min Rain = 0
KAD1 111143Z 02013KT 02/M10 A3023 RMK A01 T00211100  RH  040%=      5-min Rain = 0
KAD1 111144Z 02014KT 02/M10 A3024 RMK A01 T00211100  RH  040%=      5-min Rain = 0
KAD1 111145Z 02014KT 02/M10 A3024 RMK A01 T00211100  RH  040%=      5-min Rain = 0
KAD1 111146Z 02014KT 02/M10 A3024 RMK A01 T00211100  RH  040%=      5-min Rain = 0
KAD1 111147Z 02016KT 02/M10 A3024 RMK A01 T00201100  RH  041%=      5-min Rain = 0
KAD1 111148Z 02016KT 02/M10 A3024 RMK A01 T00201099  RH  041%=      5-min Rain = 0
KAD1 111149Z 02014KT 02/M10 A3024 RMK A01 T00201099  RH  041%=      5-min Rain = 0
KAD1 111150Z 02015KT 02/M10 A3024 RMK A01 T00201098  RH  041%=      5-min Rain = 0
KAD1 111151Z 03014KT 02/M10 A3023 RMK A01 T00201098  RH  041%=      5-min Rain = 0
KAD1 111152Z 03017KT 02/M10 A3023 RMK A01 T00191098  RH  042%=      5-min Rain = 0
KAD1 111153Z 03017KT 02/M10 A3023 RMK A01 T00191097  RH  042%=      5-min Rain = 0
KAD1 111154Z 03016KT 02/M10 A3023 RMK A01 T00191096  RH  042%=      5-min Rain = 0
KAD1 111155Z 03016KT 02/M10 A3023 RMK A01 T00191096  RH  042%=      5-min Rain = 0
KAD1 111156Z 03018KT 02/M10 A3023 RMK A01 T00191096  RH  042%=      5-min Rain = 0
KAD1 111157Z 03015KT 02/M10 A3023 RMK A01 T00191096  RH  042%=      5-min Rain = 0
KAD1 111158Z 04016KT 02/M10 A3023 RMK A01 T00181097  RH  042%=      5-min Rain = 0
KAD1 111159Z 03015KT 02/M10 A3023 RMK A01 T00181097  RH  042%=      5-min Rain = 0
KAD1 111200Z 03014KT 02/M10 A3024 RMK A01 T00181097  RH  042%=      5-min Rain = 0
KAD1 111201Z 03014KT 02/M10 A3024 RMK A01 T00181097  RH  042%=      5-min Rain = 0
KAD1 111202Z 03013KT 02/M10 A3024 RMK A01 T00171097  RH  042%=      5-min Rain = 0
KAD1 111203Z 03012KT 02/M10 A3024 RMK A01 T00171097  RH  042%=      5-min Rain = 0
KAD1 111204Z 02013KT 02/M10 A3024 RMK A01 T00171097  RH  042%=      5-min Rain = 0
KAD1 111205Z 02011KT 02/M10 A3024 RMK A01 T00171098  RH  042%=      5-min Rain = 0
KAD1 111206Z 02012KT 02/M10 A3024 RMK A01 T00171098  RH  042%=      5-min Rain = 0
KAD1 111207Z 02011KT 02/M10 A3024 RMK A01 T00161098  RH  043%=      5-min Rain = 0
KAD1 111208Z 01012KT 02/M10 A3024 RMK A01 T00161098  RH  043%=      5-min Rain = 0
KAD1 111209Z 02010KT 02/M10 A3024 RMK A01 T00161098  RH  042%=      5-min Rain = 0
KAD1 111210Z 02012KT 02/M10 A3024 RMK A01 T00151099  RH  042%=      5-min Rain = 0
KAD1 111211Z 02013KT 02/M10 A3024 RMK A01 T00151099  RH  043%=      5-min Rain = 0
KAD1 111212Z 02013KT 02/M10 A3024 RMK A01 T00151099  RH  042%=      5-min Rain = 0
KAD1 111213Z 02012KT 02/M10 A3024 RMK A01 T00151099  RH  042%=      5-min Rain = 0
KAD1 111214Z 02013KT 02/M10 A3024 RMK A01 T00151099  RH  042%=      5-min Rain = 0
KAD1 111215Z 02013KT 01/M10 A3024 RMK A01 T00141099  RH  042%=      5-min Rain = 0
KAD1 111216Z 02012KT 01/M10 A3025 RMK A01 T00141099  RH  043%=      5-min Rain = 0
KAD1 111217Z 02011G16KT 01/M10 A3025 RMK A01 T00141099  RH  043%=      5-min Rain = 0
KAD1 111218Z 02014KT 01/M10 A3025 RMK A01 T00131100  RH  043%=      5-min Rain = 0
KAD1 111219Z 02014KT 01/M10 A3025 RMK A01 T00131099  RH  043%=      5-min Rain = 0
KAD1 111220Z 02015KT 01/M10 A3025 RMK A01 T00131099  RH  043%=      5-min Rain = 0
KAD1 111221Z 02011KT 01/M10 A3025 RMK A01 T00131099  RH  043%=      5-min Rain = 0
KAD1 111222Z 02012KT 01/M10 A3025 RMK A01 T00131099  RH  043%=      5-min Rain = 0
KAD1 111223Z 02015KT 01/M10 A3025 RMK A01 T00121099  RH  043%=      5-min Rain = 0
KAD1 111224Z 02013KT 01/M10 A3025 RMK A01 T00121099  RH  043%=      5-min Rain = 0
KAD1 111225Z 02015KT 01/M10 A3025 RMK A01 T00111099  RH  044%=      5-min Rain = 0
KAD1 111226Z 02014KT 01/M10 A3025 RMK A01 T00111099  RH  044%=      5-min Rain = 0
KAD1 111227Z 02014KT 01/M10 A3025 RMK A01 T00121099  RH  044%=      5-min Rain = 0
KAD1 111228Z 02012KT 01/M10 A3025 RMK A01 T00111099  RH  044%=      5-min Rain = 0
KAD1 111229Z 02014KT 01/M10 A3026 RMK A01 T00111099  RH  044%=      5-min Rain = 0
KAD1 111230Z 02013KT 01/M10 A3026 RMK A01 T00111098  RH  044%=      5-min Rain = 0
KAD1 111231Z 02012KT 01/M10 A3026 RMK A01 T00111098  RH  044%=      5-min Rain = 0
KAD1 111232Z 02012KT 01/M10 A3026 RMK A01 T00111098  RH  044%=      5-min Rain = 0
KAD1 111233Z 02012KT 01/M10 A3026 RMK A01 T00101098  RH  044%=      5-min Rain = 0
KAD1 111234Z 02014KT 01/M10 A3026 RMK A01 T00101098  RH  044%=      5-min Rain = 0
KAD1 111235Z 02014KT 01/M10 A3026 RMK A01 T00101098  RH  044%=      5-min Rain = 0
KAD1 111236Z 02014KT 01/M10 A3026 RMK A01 T00101098  RH  044%=      5-min Rain = 0
KAD1 111237Z 03011KT 01/M10 A3026 RMK A01 T00101098  RH  044%=      5-min Rain = 0
KAD1 111238Z 03013KT 01/M10 A3026 RMK A01 T00091099  RH  044%=      5-min Rain = 0
KAD1 111239Z 03012KT 01/M10 A3026 RMK A01 T00091099  RH  044%=      5-min Rain = 0
KAD1 111240Z 03014KT 01/M10 A3026 RMK A01 T00091098  RH  045%=      5-min Rain = 0
KAD1 111241Z 02013KT 01/M10 A3026 RMK A01 T00091098  RH  045%=      5-min Rain = 0
KAD1 111242Z 03015KT 01/M10 A3026 RMK A01 T00091098  RH  045%=      5-min Rain = 0
KAD1 111243Z 03014KT 01/M10 A3026 RMK A01 T00091098  RH  045%=      5-min Rain = 0
KAD1 111244Z 03013KT 01/M10 A3026 RMK A01 T00091098  RH  045%=      5-min Rain = 0
KAD1 111245Z 03013G18KT 01/M10 A3026 RMK A01 T00091097  RH  045%=      5-min Rain = 0
KAD1 111246Z 03013KT 01/M10 A3026 RMK A01 T00091098  RH  045%=      5-min Rain = 0
KAD1 111247Z 03015KT 01/M10 A3026 RMK A01 T00081097  RH  045%=      5-min Rain = 0
KAD1 111248Z 03014KT 01/M10 A3026 RMK A01 T00081097  RH  045%=      5-min Rain = 0
KAD1 111249Z 03015KT 01/M10 A3026 RMK A01 T00081097  RH  045%=      5-min Rain = 0
KAD1 111250Z 03014KT 01/M10 A3026 RMK A01 T00081097  RH  045%=      5-min Rain = 0
KAD1 111251Z 03014KT 01/M10 A3026 RMK A01 T00081097  RH  045%=      5-min Rain = 0
KAD1 111252Z 02013KT 01/M10 A3026 RMK A01 T00081097  RH  045%=      5-min Rain = 0
KAD1 111253Z 02013KT 01/M10 A3026 RMK A01 T00081098  RH  045%=      5-min Rain = 0
KAD1 111254Z 02011KT 01/M10 A3026 RMK A01 T00081098  RH  045%=      5-min Rain = 0
KAD1 111255Z 02013KT 01/M10 A3026 RMK A01 T00071098  RH  045%=      5-min Rain = 0
KAD1 111256Z 02012KT 01/M10 A3026 RMK A01 T00071098  RH  045%=      5-min Rain = 0
KAD1 111257Z 02011KT 01/M10 A3026 RMK A01 T00071098  RH  045%=      5-min Rain = 0
KAD1 111258Z 02012KT 01/M10 A3026 RMK A01 T00071098  RH  045%=      5-min Rain = 0
KAD1 111259Z 02012KT 01/M10 A3026 RMK A01 T00071098  RH  045%=      5-min Rain = 0
KAD1 111300Z 02012KT 01/M10 A3027 RMK A01 T00061098  RH  045%=      5-min Rain = 0
KAD1 111301Z 01010KT 01/M10 A3027 RMK A01 T00061098  RH  046%=      5-min Rain = 0
KAD1 111302Z 01010KT 01/M10 A3027 RMK A01 T00061099  RH  045%=      5-min Rain = 0
KAD1 111303Z 02010KT 01/M10 A3027 RMK A01 T00051099  RH  046%=      5-min Rain = 0
KAD1 111304Z 02010KT 01/M10 A3027 RMK A01 T00051098  RH  046%=      5-min Rain = 0
KAD1 111305Z 02010KT 01/M10 A3027 RMK A01 T00051099  RH  046%=      5-min Rain = 0
KAD1 111306Z 01010KT 00/M10 A3027 RMK A01 T00041099  RH  046%=      5-min Rain = 0
KAD1 111307Z 01011KT 00/M10 A3027 RMK A01 T00041099  RH  046%=      5-min Rain = 0
KAD1 111308Z 02011KT 00/M10 A3027 RMK A01 T00041098  RH  046%=      5-min Rain = 0
KAD1 111309Z 02011KT 00/M10 A3027 RMK A01 T00041098  RH  046%=      5-min Rain = 0
KAD1 111310Z 01010KT 00/M10 A3027 RMK A01 T00041098  RH  046%=      5-min Rain = 0
KAD1 111311Z 02009KT 00/M10 A3027 RMK A01 T00041098  RH  046%=      5-min Rain = 0
KAD1 111312Z 01012KT 00/M10 A3027 RMK A01 T00041098  RH  046%=      5-min Rain = 0
KAD1 111313Z 02011KT 00/M10 A3027 RMK A01 T00041097  RH  047%=      5-min Rain = 0
KAD1 111314Z 02012KT 01/M10 A3027 RMK A01 T00051097  RH  046%=      5-min Rain = 0
KAD1 111315Z 02011KT 01/M10 A3027 RMK A01 T00051097  RH  046%=      5-min Rain = 0
KAD1 111316Z 02012KT 01/M10 A3027 RMK A01 T00051097  RH  046%=      5-min Rain = 0
KAD1 111317Z 02013KT 01/M10 A3027 RMK A01 T00051096  RH  047%=      5-min Rain = 0
KAD1 111318Z 02011KT 01/M10 A3027 RMK A01 T00061096  RH  046%=      5-min Rain = 0
KAD1 111319Z 02011KT 01/M10 A3028 RMK A01 T00061097  RH  046%=      5-min Rain = 0
KAD1 111320Z 02011KT 01/M10 A3028 RMK A01 T00061097  RH  046%=      5-min Rain = 0
KAD1 111321Z 01010KT 01/M10 A3028 RMK A01 T00061096  RH  046%=      5-min Rain = 0
KAD1 111322Z 02012KT 01/M10 A3028 RMK A01 T00061096  RH  046%=      5-min Rain = 0
KAD1 111323Z 01010KT 01/M10 A3028 RMK A01 T00061096  RH  046%=      5-min Rain = 0
KAD1 111324Z 02012KT 01/M10 A3028 RMK A01 T00061096  RH  046%=      5-min Rain = 0
KAD1 111325Z 02010KT 01/M10 A3028 RMK A01 T00061096  RH  046%=      5-min Rain = 0
KAD1 111326Z 01012KT 01/M10 A3028 RMK A01 T00061097  RH  046%=      5-min Rain = 0
KAD1 111327Z 02011KT 01/M10 A3028 RMK A01 T00061096  RH  046%=      5-min Rain = 0
KAD1 111328Z 02011KT 01/M10 A3028 RMK A01 T00061096  RH  046%=      5-min Rain = 0
KAD1 111329Z 02011KT 01/M10 A3028 RMK A01 T00061096  RH  046%=      5-min Rain = 0
KAD1 111330Z 02010KT 01/M10 A3028 RMK A01 T00061096  RH  046%=      5-min Rain = 0
KAD1 111331Z 02011KT 01/M10 A3028 RMK A01 T00061096  RH  046%=      5-min Rain = 0
KAD1 111332Z 02012KT 01/M10 A3028 RMK A01 T00061096  RH  046%=      5-min Rain = 0
KAD1 111333Z 02012KT 01/M10 A3028 RMK A01 T00061096  RH  046%=      5-min Rain = 0
KAD1 111334Z 02013KT 01/M10 A3028 RMK A01 T00071096  RH  046%=      5-min Rain = 0
KAD1 111335Z 02014KT 01/M10 A3028 RMK A01 T00071095  RH  046%=      5-min Rain = 0
KAD1 111336Z 02014KT 01/M10 A3028 RMK A01 T00071095  RH  047%=      5-min Rain = 0
KAD1 111337Z 03013KT 01/M10 A3028 RMK A01 T00071095  RH  047%=      5-min Rain = 0
KAD1 111338Z 02014KT 01/M10 A3028 RMK A01 T00071095  RH  047%=      5-min Rain = 0
KAD1 111339Z 02013KT 01/M10 A3028 RMK A01 T00071095  RH  046%=      5-min Rain = 0
KAD1 111340Z 02012KT 01/M10 A3028 RMK A01 T00071096  RH  046%=      5-min Rain = 0
KAD1 111341Z 02014KT 01/M10 A3028 RMK A01 T00071096  RH  046%=      5-min Rain = 0
KAD1 111342Z 02014KT 01/M10 A3028 RMK A01 T00071096  RH  046%=      5-min Rain = 0
KAD1 111343Z 02014KT 01/M10 A3028 RMK A01 T00071095  RH  046%=      5-min Rain = 0
KAD1 111344Z 02014KT 01/M10 A3028 RMK A01 T00071095  RH  046%=      5-min Rain = 0
KAD1 111345Z 02015KT 01/M10 A3028 RMK A01 T00071095  RH  046%=      5-min Rain = 0
KAD1 111346Z 02011KT 01/M10 A3028 RMK A01 T00071095  RH  047%=      5-min Rain = 0
KAD1 111347Z 02012KT 01/M10 A3028 RMK A01 T00071095  RH  046%=      5-min Rain = 0
KAD1 111348Z 02013KT 01/M10 A3028 RMK A01 T00061095  RH  047%=      5-min Rain = 0
KAD1 111349Z 02013KT 01/M10 A3028 RMK A01 T00061095  RH  047%=      5-min Rain = 0
KAD1 111350Z 02012KT 01/M10 A3028 RMK A01 T00061095  RH  047%=      5-min Rain = 0
KAD1 111351Z 02013KT 01/M10 A3028 RMK A01 T00061095  RH  047%=      5-min Rain = 0
KAD1 111352Z 02013KT 01/M10 A3028 RMK A01 T00061095  RH  047%=      5-min Rain = 0
KAD1 111353Z 02013KT 01/M10 A3028 RMK A01 T00071095  RH  047%=      5-min Rain = 0
KAD1 111354Z 01011KT 01/M10 A3028 RMK A01 T00071095  RH  046%=      5-min Rain = 0
KAD1 111355Z 02011KT 01/M10 A3028 RMK A01 T00081095  RH  046%=      5-min Rain = 0
KAD1 111356Z 01011KT 01/M09 A3028 RMK A01 T00091094  RH  046%=      5-min Rain = 0
KAD1 111357Z 01011KT 01/M09 A3028 RMK A01 T00091094  RH  046%=      5-min Rain = 0
KAD1 111358Z 01012KT 01/M10 A3029 RMK A01 T00101095  RH  046%=      5-min Rain = 0
KAD1 111359Z 01011KT 01/M10 A3029 RMK A01 T00111095  RH  045%=      5-min Rain = 0
KAD1 111400Z 01012KT 01/M10 A3029 RMK A01 T00111095  RH  045%=      5-min Rain = 0
KAD1 111401Z 02009KT 01/M10 A3029 RMK A01 T00121095  RH  045%=      5-min Rain = 0
KAD1 111402Z 01011KT 01/M10 A3029 RMK A01 T00121096  RH  045%=      5-min Rain = 0
KAD1 111403Z 01013KT 01/M10 A3029 RMK A01 T00111096  RH  045%=      5-min Rain = 0
KAD1 111404Z 01013KT 01/M10 A3029 RMK A01 T00101096  RH  045%=      5-min Rain = 0
KAD1 111405Z 01015KT 01/M10 A3029 RMK A01 T00101095  RH  046%=      5-min Rain = 0
KAD1 111406Z 00015KT 01/M10 A3029 RMK A01 T00091095  RH  046%=      5-min Rain = 0
KAD1 111407Z 01014KT 01/M09 A3029 RMK A01 T00081094  RH  046%=      5-min Rain = 0
KAD1 111408Z 01014KT 01/M09 A3029 RMK A01 T00081094  RH  046%=      5-min Rain = 0
KAD1 111409Z 02013KT 01/M09 A3029 RMK A01 T00091094  RH  046%=      5-min Rain = 0
KAD1 111410Z 01014KT 01/M09 A3029 RMK A01 T00091093  RH  046%=      5-min Rain = 0
KAD1 111411Z 01014KT 01/M09 A3029 RMK A01 T00091093  RH  046%=      5-min Rain = 0
KAD1 111412Z 01012KT 01/M09 A3029 RMK A01 T00091093  RH  046%=      5-min Rain = 0
KAD1 111413Z 02014KT 01/M09 A3029 RMK A01 T00091093  RH  046%=      5-min Rain = 0
KAD1 111414Z 01013KT 01/M09 A303 RMK A01 T00101093  RH  046%=      5-min Rain = 0
KAD1 111415Z 01012KT 01/M09 A303 RMK A01 T00101093  RH  046%=      5-min Rain = 0
KAD1 111416Z 01016KT 01/M09 A3029 RMK A01 T00111093  RH  046%=      5-min Rain = 0
KAD1 111417Z 02014KT 01/M09 A3029 RMK A01 T00111093  RH  046%=      5-min Rain = 0
KAD1 111418Z 01012KT 01/M09 A303 RMK A01 T00111093  RH  046%=      5-min Rain = 0
KAD1 111419Z 01015KT 01/M09 A303 RMK A01 T00111092  RH  046%=      5-min Rain = 0
KAD1 111420Z 00016KT 01/M09 A303 RMK A01 T00111092  RH  046%=      5-min Rain = 0
KAD1 111421Z 01016KT 01/M09 A303 RMK A01 T00111093  RH  046%=      5-min Rain = 0
KAD1 111422Z 01014KT 01/M09 A303 RMK A01 T00101092  RH  046%=      5-min Rain = 0
KAD1 111423Z 01015KT 01/M09 A303 RMK A01 T00101092  RH  046%=      5-min Rain = 0
KAD1 111424Z 01015KT 01/M09 A303 RMK A01 T00111092  RH  046%=      5-min Rain = 0
KAD1 111425Z 03014KT 01/M09 A303 RMK A01 T00111092  RH  046%=      5-min Rain = 0
KAD1 111426Z 02013KT 01/M09 A303 RMK A01 T00111092  RH  046%=      5-min Rain = 0
KAD1 111427Z 02015KT 01/M09 A303 RMK A01 T00111092  RH  046%=      5-min Rain = 0
KAD1 111428Z 02014KT 01/M09 A303 RMK A01 T00111092  RH  046%=      5-min Rain = 0
KAD1 111429Z 02012KT 01/M09 A303 RMK A01 T00111092  RH  046%=      5-min Rain = 0
KAD1 111430Z 02013KT 01/M09 A303 RMK A01 T00121091  RH  046%=      5-min Rain = 0
KAD1 111431Z 02015KT 01/M09 A303 RMK A01 T00121092  RH  046%=      5-min Rain = 0
KAD1 111432Z 02013KT 01/M09 A303 RMK A01 T00121091  RH  046%=      5-min Rain = 0
KAD1 111433Z 02013KT 01/M09 A303 RMK A01 T00121091  RH  046%=      5-min Rain = 0
KAD1 111434Z 02014KT 01/M09 A303 RMK A01 T00121091  RH  046%=      5-min Rain = 0
KAD1 111435Z 02015KT 01/M09 A303 RMK A01 T00121091  RH  046%=      5-min Rain = 0
KAD1 111436Z 02013KT 01/M09 A303 RMK A01 T00111091  RH  046%=      5-min Rain = 0
KAD1 111437Z 02015KT 01/M09 A303 RMK A01 T00121091  RH  046%=      5-min Rain = 0
KAD1 111438Z 01015KT 01/M09 A303 RMK A01 T00121091  RH  046%=      5-min Rain = 0
KAD1 111439Z 02015KT 01/M09 A303 RMK A01 T00121091  RH  046%=      5-min Rain = 0
KAD1 111440Z 02015KT 01/M09 A303 RMK A01 T00121091  RH  046%=      5-min Rain = 0
KAD1 111441Z 02015KT 01/M09 A303 RMK A01 T00121091  RH  046%=      5-min Rain = 0
KAD1 111442Z 02013KT 01/M09 A303 RMK A01 T00141090  RH  046%=      5-min Rain = 0
KAD1 111443Z 01013KT 02/M09 A303 RMK A01 T00171088  RH  046%=      5-min Rain = 0
KAD1 111444Z 02016KT 02/M09 A303 RMK A01 T00191088  RH  045%=      5-min Rain = 0
KAD1 111445Z 02017KT 02/M09 A303 RMK A01 T00211089  RH  044%=      5-min Rain = 0
KAD1 111446Z 02019KT 02/M09 A3029 RMK A01 T00221090  RH  043%=      5-min Rain = 0
KAD1 111447Z 02019KT 02/M09 A3029 RMK A01 T00231091  RH  043%=      5-min Rain = 0
KAD1 111448Z 02017G23KT 02/M09 A3029 RMK A01 T00221092  RH  043%=      5-min Rain = 0
KAD1 111449Z 02017KT 02/M09 A303 RMK A01 T00231092  RH  042%=      5-min Rain = 0
KAD1 111450Z 03017KT 02/M09 A303 RMK A01 T00241092  RH  042%=      5-min Rain = 0
KAD1 111451Z 03016KT 03/M09 A303 RMK A01 T00251092  RH  042%=      5-min Rain = 0
KAD1 111452Z 02015KT 03/M09 A303 RMK A01 T00261092  RH  042%=      5-min Rain = 0
KAD1 111453Z 02016KT 03/M09 A303 RMK A01 T00271091  RH  042%=      5-min Rain = 0
KAD1 111454Z 02014KT 03/M09 A303 RMK A01 T00271091  RH  041%=      5-min Rain = 0
KAD1 111455Z 03016KT 03/M09 A303 RMK A01 T00281091  RH  041%=      5-min Rain = 0
KAD1 111456Z 02015KT 03/M09 A303 RMK A01 T00281092  RH  041%=      5-min Rain = 0
KAD1 111457Z 03015KT 03/M09 A303 RMK A01 T00271093  RH  041%=      5-min Rain = 0
KAD1 111458Z 03016KT 03/M09 A303 RMK A01 T00271093  RH  041%=      5-min Rain = 0
KAD1 111459Z 03016KT 03/M09 A303 RMK A01 T00281092  RH  041%=      5-min Rain = 0
KAD1 111500Z 03015KT 03/M09 A3031 RMK A01 T00281094  RH  040%=      5-min Rain = 0
KAD1 111501Z 03017KT 03/M09 A3031 RMK A01 T00281094  RH  040%=      5-min Rain = 0
KAD1 111502Z 03017KT 03/M09 A3031 RMK A01 T00271094  RH  040%=      5-min Rain = 0
KAD1 111503Z 03015KT 03/M09 A3031 RMK A01 T00271094  RH  040%=      5-min Rain = 0
KAD1 111504Z 02012KT 03/M09 A3031 RMK A01 T00281093  RH  040%=      5-min Rain = 0
KAD1 111505Z 02015KT 03/M09 A3031 RMK A01 T00301092  RH  040%=      5-min Rain = 0
KAD1 111506Z 02014KT 03/M09 A3031 RMK A01 T00301094  RH  040%=      5-min Rain = 0
KAD1 111507Z 02013KT 03/M09 A3031 RMK A01 T00301094  RH  040%=      5-min Rain = 0
KAD1 111508Z 02015KT 03/M09 A3031 RMK A01 T00311094  RH  039%=      5-min Rain = 0
KAD1 111509Z 03017KT 03/M10 A3031 RMK A01 T00311095  RH  039%=      5-min Rain = 0
KAD1 111510Z 03017KT 03/M10 A3031 RMK A01 T00311096  RH  039%=      5-min Rain = 0
KAD1 111511Z 02015KT 03/M10 A3031 RMK A01 T00311096  RH  039%=      5-min Rain = 0
KAD1 111512Z 02015KT 03/M10 A3031 RMK A01 T00301096  RH  039%=      5-min Rain = 0
KAD1 111513Z 01017KT 03/M10 A3031 RMK A01 T00301096  RH  039%=      5-min Rain = 0
KAD1 111514Z 02014KT 03/M10 A3031 RMK A01 T00301096  RH  039%=      5-min Rain = 0
KAD1 111515Z 02016KT 03/M10 A3031 RMK A01 T00311097  RH  039%=      5-min Rain = 0
KAD1 111516Z 02019KT 03/M10 A3031 RMK A01 T00311098  RH  038%=      5-min Rain = 0
KAD1 111517Z 02018KT 03/M10 A3031 RMK A01 T00311099  RH  038%=      5-min Rain = 0
KAD1 111518Z 03017KT 03/M10 A3031 RMK A01 T00311099  RH  038%=      5-min Rain = 0
KAD1 111519Z 02017KT 03/M10 A3031 RMK A01 T00321098  RH  038%=      5-min Rain = 0
KAD1 111520Z 02017KT 03/M10 A3031 RMK A01 T00321099  RH  037%=      5-min Rain = 0
KAD1 111521Z 03019G24KT 03/M10 A3031 RMK A01 T00321099  RH  037%=      5-min Rain = 0
KAD1 111522Z 02014KT 03/M10 A3031 RMK A01 T00331100  RH  037%=      5-min Rain = 0
KAD1 111523Z 02013KT 03/M10 A3031 RMK A01 T00331100  RH  037%=      5-min Rain = 0
KAD1 111524Z 02015KT 03/M10 A3031 RMK A01 T00341098  RH  037%=      5-min Rain = 0
KAD1 111525Z 02015KT 04/M10 A3031 RMK A01 T00351097  RH  037%=      5-min Rain = 0
KAD1 111526Z 03016KT 04/M10 A3031 RMK A01 T00391096  RH  037%=      5-min Rain = 0
KAD1 111527Z 03020KT 04/M10 A3031 RMK A01 T00401099  RH  035%=      5-min Rain = 0
KAD1 111528Z 02019KT 04/M10 A3031 RMK A01 T00401104  RH  034%=      5-min Rain = 0
KAD1 111529Z 02018KT 04/M11 A3031 RMK A01 T00391106  RH  034%=      5-min Rain = 0
KAD1 111530Z 03019KT 04/M11 A3031 RMK A01 T00401106  RH  034%=      5-min Rain = 0
KAD1 111531Z 03015KT 04/M11 A3031 RMK A01 T00401106  RH  034%=      5-min Rain = 0
KAD1 111532Z 04018KT 04/M10 A3031 RMK A01 T00401104  RH  034%=      5-min Rain = 0
KAD1 111533Z 02020KT 04/M10 A3031 RMK A01 T00411103  RH  034%=      5-min Rain = 0
KAD1 111534Z 02020KT 04/M11 A3031 RMK A01 T00411105  RH  034%=      5-min Rain = 0
KAD1 111535Z 02019KT 04/M11 A3031 RMK A01 T00401107  RH  033%=      5-min Rain = 0
KAD1 111536Z 03017KT 04/M11 A3031 RMK A01 T00411106  RH  033%=      5-min Rain = 0
KAD1 111537Z 02018KT 04/M11 A3031 RMK A01 T00441105  RH  033%=      5-min Rain = 0
KAD1 111538Z 03015G22KT 05/M11 A3031 RMK A01 T00451105  RH  033%=      5-min Rain = 0
KAD1 111539Z 02017KT 05/M11 A3031 RMK A01 T00471106  RH  032%=      5-min Rain = 0
KAD1 111540Z 03016KT 05/M11 A3031 RMK A01 T00461107  RH  032%=      5-min Rain = 0
KAD1 111541Z 04018KT 05/M11 A3031 RMK A01 T00461106  RH  032%=      5-min Rain = 0
KAD1 111542Z 04017KT 04/M11 A3031 RMK A01 T00441109  RH  032%=      5-min Rain = 0
KAD1 111543Z 04017KT 04/M11 A3031 RMK A01 T00431110  RH  032%=      5-min Rain = 0
KAD1 111544Z 04016KT 04/M11 A3031 RMK A01 T00421111  RH  032%=      5-min Rain = 0
KAD1 111545Z 03016KT 04/M11 A3031 RMK A01 T00431109  RH  032%=      5-min Rain = 0
KAD1 111546Z 04018KT 04/M11 A3032 RMK A01 T00441109  RH  032%=      5-min Rain = 0
KAD1 111547Z 03018KT 04/M11 A3032 RMK A01 T00441111  RH  031%=      5-min Rain = 0
KAD1 111548Z 03017KT 04/M11 A3032 RMK A01 T00431112  RH  032%=      5-min Rain = 0
KAD1 111549Z 03018KT 04/M11 A3032 RMK A01 T00421111  RH  032%=      5-min Rain = 0
KAD1 111550Z 03017G23KT 04/M11 A3032 RMK A01 T00411113  RH  032%=      5-min Rain = 0
KAD1 111551Z 04019KT 04/M11 A3032 RMK A01 T00391114  RH  032%=      5-min Rain = 0
KAD1 111552Z 03017KT 04/M12 A3033 RMK A01 T00371116  RH  032%=      5-min Rain = 0
KAD1 111553Z 02020G25KT 04/M12 A3033 RMK A01 T00361115  RH  032%=      5-min Rain = 0
KAD1 111554Z 03021KT 04/M12 A3033 RMK A01 T00351117  RH  032%=      5-min Rain = 0
KAD1 111555Z 04018KT 03/M12 A3033 RMK A01 T00341117  RH  032%=      5-min Rain = 0
KAD1 111556Z 03016KT 04/M12 A3033 RMK A01 T00351116  RH  032%=      5-min Rain = 0
KAD1 111557Z 03017KT 04/M11 A3033 RMK A01 T00371114  RH  032%=      5-min Rain = 0
KAD1 111558Z 03019KT 04/M11 A3033 RMK A01 T00381113  RH  032%=      5-min Rain = 0
KAD1 111559Z 03017KT 04/M11 A3033 RMK A01 T00401113  RH  032%=      5-min Rain = 0
KAD1 111600Z 03018KT 04/M11 A3033 RMK A01 T00441110  RH  032%=      5-min Rain = 0
KAD1 111601Z 03019KT 05/M11 A3033 RMK A01 T00451110  RH  031%=      5-min Rain = 0
KAD1 111602Z 03021KT 05/M11 A3032 RMK A01 T00451110  RH  031%=      5-min Rain = 0
KAD1 111603Z 03020KT 05/M11 A3032 RMK A01 T00451110  RH  031%=      5-min Rain = 0
KAD1 111604Z 03020KT 05/M11 A3032 RMK A01 T00451110  RH  031%=      5-min Rain = 0
KAD1 111605Z 03017G22KT 05/M11 A3032 RMK A01 T00461109  RH  031%=      5-min Rain = 0
KAD1 111606Z 03019G24KT 05/M11 A3032 RMK A01 T00501108  RH  031%=      5-min Rain = 0
KAD1 111607Z 03020KT 05/M11 A3032 RMK A01 T00491110  RH  031%=      5-min Rain = 0
KAD1 111608Z 02020G25KT 05/M11 A3032 RMK A01 T00491110  RH  031%=      5-min Rain = 0
KAD1 111609Z 03019KT 05/M11 A3033 RMK A01 T00481111  RH  031%=      5-min Rain = 0
KAD1 111610Z 03020KT 05/M11 A3033 RMK A01 T00471111  RH  031%=      5-min Rain = 0
KAD1 111611Z 03018KT 05/M11 A3033 RMK A01 T00451111  RH  031%=      5-min Rain = 0
KAD1 111612Z 03016KT 05/M11 A3033 RMK A01 T00451111  RH  031%=      5-min Rain = 0
KAD1 111613Z 03016KT 05/M11 A3033 RMK A01 T00471109  RH  031%=      5-min Rain = 0
KAD1 111614Z 03016KT 05/M11 A3033 RMK A01 T00481110  RH  031%=      5-min Rain = 0
KAD1 111615Z 02017KT 05/M11 A3033 RMK A01 T00471110  RH  031%=      5-min Rain = 0
KAD1 111616Z 02016KT 05/M11 A3033 RMK A01 T00461111  RH  031%=      5-min Rain = 0
KAD1 111617Z 02018KT 05/M11 A3033 RMK A01 T00491108  RH  031%=      5-min Rain = 0
KAD1 111618Z 03016KT 05/M11 A3033 RMK A01 T00501109  RH  031%=      5-min Rain = 0
KAD1 111619Z 03016KT 05/M11 A3033 RMK A01 T00501110  RH  030%=      5-min Rain = 0
KAD1 111620Z 03016KT 05/M11 A3033 RMK A01 T00501111  RH  030%=      5-min Rain = 0
KAD1 111621Z 01018KT 05/M11 A3033 RMK A01 T00511110  RH  030%=      5-min Rain = 0
KAD1 111622Z 01020KT 05/M11 A3033 RMK A01 T00521110  RH  030%=      5-min Rain = 0
KAD1 111623Z 02018G23KT 05/M11 A3033 RMK A01 T00521111  RH  030%=      5-min Rain = 0
KAD1 111624Z 02017KT 05/M11 A3033 RMK A01 T00521111  RH  030%=      5-min Rain = 0
KAD1 111625Z 03016KT 05/M11 A3033 RMK A01 T00531111  RH  029%=      5-min Rain = 0
KAD1 111626Z 03016G22KT 05/M11 A3033 RMK A01 T00531111  RH  029%=      5-min Rain = 0
KAD1 111627Z 02016G21KT 06/M11 A3033 RMK A01 T00551110  RH  029%=      5-min Rain = 0
KAD1 111628Z 02015G20KT 06/M11 A3033 RMK A01 T00551111  RH  029%=      5-min Rain = 0
KAD1 111629Z 01016KT 06/M11 A3033 RMK A01 T00591106  RH  029%=      5-min Rain = 0
KAD1 111630Z 02017KT 06/M11 A3033 RMK A01 T00621106  RH  029%=      5-min Rain = 0
KAD1 111631Z 02014KT 06/M11 A3033 RMK A01 T00611108  RH  029%=      5-min Rain = 0
KAD1 111632Z 02015G20KT 06/M11 A3033 RMK A01 T00641105  RH  029%=      5-min Rain = 0
KAD1 111633Z 03017KT 06/M11 A3033 RMK A01 T00641108  RH  028%=      5-min Rain = 0
KAD1 111634Z 02015G20KT 06/M11 A3033 RMK A01 T00611109  RH  028%=      5-min Rain = 0
KAD1 111635Z 02012KT 06/M11 A3033 RMK A01 T00641105  RH  029%=      5-min Rain = 0
KAD1 111636Z 02015KT 07/M11 A3033 RMK A01 T00651105  RH  028%=      5-min Rain = 0
KAD1 111637Z 02017KT 06/M11 A3033 RMK A01 T00621109  RH  028%=      5-min Rain = 0
KAD1 111638Z 03014KT 06/M11 A3033 RMK A01 T00561113  RH  029%=      5-min Rain = 0
KAD1 111639Z 02017KT 05/M11 A3033 RMK A01 T00541111  RH  029%=      5-min Rain = 0
KAD1 111640Z 03014KT 05/M11 A3033 RMK A01 T00531111  RH  030%=      5-min Rain = 0
KAD1 111641Z 02016G22KT 06/M11 A3033 RMK A01 T00551108  RH  030%=      5-min Rain = 0
KAD1 111642Z 01018KT 06/M11 A3033 RMK A01 T00561108  RH  030%=      5-min Rain = 0
KAD1 111643Z 02017KT 05/M11 A3033 RMK A01 T00541110  RH  030%=      5-min Rain = 0
KAD1 111644Z 02013KT 05/M11 A3034 RMK A01 T00541108  RH  030%=      5-min Rain = 0
KAD1 111645Z 01017G22KT 06/M11 A3034 RMK A01 T00571107  RH  030%=      5-min Rain = 0
KAD1 111646Z 01016KT 06/M11 A3033 RMK A01 T00561110  RH  029%=      5-min Rain = 0
KAD1 111647Z 02017KT 05/M11 A3033 RMK A01 T00541111  RH  029%=      5-min Rain = 0
KAD1 111648Z 02014KT 05/M11 A3033 RMK A01 T00521112  RH  030%=      5-min Rain = 0
KAD1 111649Z 03015KT 05/M11 A3033 RMK A01 T00531109  RH  030%=      5-min Rain = 0
KAD1 111650Z 04013KT 06/M11 A3033 RMK A01 T00551109  RH  029%=      5-min Rain = 0
KAD1 111651Z 04014KT 06/M11 A3033 RMK A01 T00561109  RH  029%=      5-min Rain = 0
KAD1 111652Z 03016G21KT 06/M11 A3033 RMK A01 T00571110  RH  029%=      5-min Rain = 0
KAD1 111653Z 03014G19KT 06/M11 A3033 RMK A01 T00571111  RH  029%=      5-min Rain = 0
KAD1 111654Z 03015KT 06/M11 A3033 RMK A01 T00571111  RH  029%=      5-min Rain = 0
KAD1 111655Z 04012KT 06/M11 A3033 RMK A01 T00561112  RH  029%=      5-min Rain = 0
KAD1 111656Z 03014KT 06/M11 A3033 RMK A01 T00561112  RH  029%=      5-min Rain = 0
KAD1 111657Z 02015KT 06/M11 A3033 RMK A01 T00571113  RH  028%=      5-min Rain = 0
KAD1 111658Z 01014KT 05/M12 A3034 RMK A01 T00541116  RH  028%=      5-min Rain = 0
KAD1 111659Z 03017KT 06/M11 A3033 RMK A01 T00571112  RH  029%=      5-min Rain = 0
KAD1 111700Z 02016KT 06/M11 A3033 RMK A01 T00571112  RH  028%=      5-min Rain = 0
KAD1 111701Z 02015KT 06/M11 A3033 RMK A01 T00571113  RH  028%=      5-min Rain = 0
KAD1 111702Z 02016KT 05/M11 A3033 RMK A01 T00541114  RH  029%=      5-min Rain = 0
KAD1 111703Z 02017KT 06/M11 A3033 RMK A01 T00551114  RH  028%=      5-min Rain = 0
KAD1 111704Z 04015KT 05/M12 A3033 RMK A01 T00531116  RH  028%=      5-min Rain = 0
KAD1 111705Z 04013KT 05/M12 A3033 RMK A01 T00521116  RH  028%=      5-min Rain = 0
KAD1 111706Z 03013KT 05/M12 A3033 RMK A01 T00531115  RH  029%=      5-min Rain = 0
KAD1 111707Z 01015G21KT 06/M11 A3033 RMK A01 T00561112  RH  029%=      5-min Rain = 0
KAD1 111708Z 01016KT 06/M11 A3034 RMK A01 T00581113  RH  028%=      5-min Rain = 0
KAD1 111709Z 02015G20KT 06/M11 A3033 RMK A01 T00571114  RH  028%=      5-min Rain = 0
KAD1 111710Z 02016KT 06/M12 A3033 RMK A01 T00581115  RH  028%=      5-min Rain = 0
KAD1 111711Z 03015KT 06/M12 A3033 RMK A01 T00561117  RH  027%=      5-min Rain = 0
KAD1 111712Z 03013KT 06/M12 A3033 RMK A01 T00561117  RH  028%=      5-min Rain = 0
KAD1 111713Z 03011KT 06/M12 A3033 RMK A01 T00551117  RH  028%=      5-min Rain = 0
KAD1 111714Z 01015KT 06/M12 A3033 RMK A01 T00561115  RH  028%=      5-min Rain = 0
KAD1 111715Z 03013KT 06/M11 A3033 RMK A01 T00591112  RH  028%=      5-min Rain = 0
KAD1 111716Z 03016KT 06/M11 A3033 RMK A01 T00631111  RH  028%=      5-min Rain = 0
KAD1 111717Z 02014KT 07/M11 A3033 RMK A01 T00651112  RH  027%=      5-min Rain = 0
KAD1 111718Z 03013KT 06/M11 A3033 RMK A01 T00641114  RH  027%=      5-min Rain = 0
KAD1 111719Z 03014KT 06/M12 A3033 RMK A01 T00601117  RH  027%=      5-min Rain = 0
KAD1 111720Z 01012KT 06/M12 A3033 RMK A01 T00561116  RH  028%=      5-min Rain = 0
KAD1 111721Z 01014G19KT 06/M11 A3033 RMK A01 T00611109  RH  028%=      5-min Rain = 0
KAD1 111722Z 01013KT 06/M11 A3033 RMK A01 T00631110  RH  028%=      5-min Rain = 0
KAD1 111723Z 02012KT 06/M11 A3033 RMK A01 T00641109  RH  028%=      5-min Rain = 0
KAD1 111724Z 03015G20KT 07/M11 A3033 RMK A01 T00651107  RH  028%=      5-min Rain = 0
KAD1 111725Z 04017KT 07/M11 A3033 RMK A01 T00651106  RH  028%=      5-min Rain = 0
KAD1 111726Z 02015KT 07/M10 A3033 RMK A01 T00691104  RH  028%=      5-min Rain = 0
KAD1 111727Z 02015KT 07/M11 A3033 RMK A01 T00691105  RH  028%=      5-min Rain = 0
KAD1 111728Z 02013KT 07/M11 A3033 RMK A01 T00671106  RH  028%=      5-min Rain = 0
KAD1 111729Z 01016KT 07/M10 A3033 RMK A01 T00701102  RH  028%=      5-min Rain = 0
KAD1 111730Z 01013KT 07/M10 A3033 RMK A01 T00711103  RH  028%=      5-min Rain = 0
KAD1 111731Z 02015KT 07/M10 A3033 RMK A01 T00711102  RH  028%=      5-min Rain = 0
KAD1 111732Z 02018KT 07/M10 A3033 RMK A01 T00721101  RH  028%=      5-min Rain = 0
KAD1 111733Z 01014KT 07/M10 A3033 RMK A01 T00671104  RH  028%=      5-min Rain = 0
KAD1 111734Z 02013KT 06/M10 A3033 RMK A01 T00641104  RH  029%=      5-min Rain = 0
KAD1 111735Z 04017KT 07/M10 A3033 RMK A01 T00661099  RH  030%=      5-min Rain = 0
KAD1 111736Z 05015KT 07/M10 A3033 RMK A01 T00681099  RH  029%=      5-min Rain = 0
KAD1 111737Z 03018KT 07/M10 A3033 RMK A01 T00721097  RH  029%=      5-min Rain = 0
KAD1 111738Z 03013KT 07/M10 A3033 RMK A01 T00721100  RH  028%=      5-min Rain = 0
KAD1 111739Z 03014G24KT 07/M10 A3033 RMK A01 T00701100  RH  029%=      5-min Rain = 0
KAD1 111740Z 01014KT 07/M10 A3033 RMK A01 T00731098  RH  028%=      5-min Rain = 0
KAD1 111741Z 02012KT 07/M10 A3033 RMK A01 T00741098  RH  028%=      5-min Rain = 0
KAD1 111742Z 03012KT 07/M10 A3033 RMK A01 T00741098  RH  028%=      5-min Rain = 0
KAD1 111743Z 03014KT 08/M10 A3033 RMK A01 T00761098  RH  028%=      5-min Rain = 0
KAD1 111744Z 02016KT 08/M10 A3033 RMK A01 T00751100  RH  028%=      5-min Rain = 0
KAD1 111745Z 01017KT 08/M10 A3033 RMK A01 T00751100  RH  028%=      5-min Rain = 0
KAD1 111746Z 02016KT 07/M10 A3033 RMK A01 T00721102  RH  028%=      5-min Rain = 0
KAD1 111747Z 02015KT 07/M10 A3033 RMK A01 T00701102  RH  028%=      5-min Rain = 0
KAD1 111748Z 03016KT 07/M10 A3033 RMK A01 T00671102  RH  029%=      5-min Rain = 0
KAD1 111749Z 02016KT 07/M10 A3033 RMK A01 T00671102  RH  029%=      5-min Rain = 0
KAD1 111750Z 02016KT 07/M10 A3033 RMK A01 T00671102  RH  029%=      5-min Rain = 0
KAD1 111751Z 02018KT 07/M10 A3033 RMK A01 T00701101  RH  028%=      5-min Rain = 0
KAD1 111752Z 03017KT 07/M10 A3033 RMK A01 T00711102  RH  028%=      5-min Rain = 0
KAD1 111753Z 01014KT 07/M10 A3033 RMK A01 T00701104  RH  028%=      5-min Rain = 0
KAD1 111754Z 01015KT 07/M10 A3033 RMK A01 T00681104  RH  028%=      5-min Rain = 0
KAD1 111755Z 01012KT 07/M11 A3033 RMK A01 T00661105  RH  028%=      5-min Rain = 0
KAD1 111756Z 02011KT 07/M10 A3033 RMK A01 T00661104  RH  029%=      5-min Rain = 0
KAD1 111757Z 03013G19KT 07/M10 A3033 RMK A01 T00671104  RH  028%=      5-min Rain = 0
KAD1 111758Z 01014KT 07/M10 A3033 RMK A01 T00681104  RH  028%=      5-min Rain = 0
KAD1 111759Z 02016KT 07/M10 A3033 RMK A01 T00701103  RH  028%=      5-min Rain = 0
KAD1 111800Z 01014G19KT 07/M11 A3033 RMK A01 T00681107  RH  028%=      5-min Rain = 0
KAD1 111801Z 01014KT 07/M11 A3033 RMK A01 T00681105  RH  028%=      5-min Rain = 0
KAD1 111802Z 01014KT 07/M10 A3033 RMK A01 T00691104  RH  028%=      5-min Rain = 0
KAD1 111803Z 03012KT 07/M11 A3033 RMK A01 T00691105  RH  028%=      5-min Rain = 0
KAD1 111804Z 02011KT 07/M10 A3033 RMK A01 T00711104  RH  028%=      5-min Rain = 0
KAD1 111805Z 02016KT 07/M10 A3033 RMK A01 T00731103  RH  027%=      5-min Rain = 0
KAD1 111806Z 01015KT 07/M11 A3033 RMK A01 T00721105  RH  027%=      5-min Rain = 0
KAD1 111807Z 02014KT 07/M11 A3032 RMK A01 T00711105  RH  027%=      5-min Rain = 0
KAD1 111808Z 02014KT 07/M11 A3033 RMK A01 T00701105  RH  027%=      5-min Rain = 0
KAD1 111809Z 02014KT 07/M11 A3032 RMK A01 T00691105  RH  028%=      5-min Rain = 0
KAD1 111810Z 03014KT 07/M10 A3032 RMK A01 T00731102  RH  028%=      5-min Rain = 0
KAD1 111811Z 01019KT 08/M10 A3033 RMK A01 T00791100  RH  027%=      5-min Rain = 0
KAD1 111812Z 01015G20KT 08/M11 A3033 RMK A01 T00771105  RH  026%=      5-min Rain = 0
KAD1 111813Z 02011KT 08/M10 A3032 RMK A01 T00761103  RH  027%=      5-min Rain = 0
KAD1 111814Z 03013KT 08/M10 A3033 RMK A01 T00791101  RH  027%=      5-min Rain = 0
KAD1 111815Z 02014KT 08/M10 A3033 RMK A01 T00841097  RH  027%=      5-min Rain = 0
KAD1 111816Z 01017KT 09/M10 A3033 RMK A01 T00871100  RH  026%=      5-min Rain = 0
KAD1 111817Z 01013KT 08/M11 A3032 RMK A01 T00811105  RH  025%=      5-min Rain = 0
KAD1 111818Z 36016KT 08/M10 A3033 RMK A01 T00801102  RH  026%=      5-min Rain = 0
KAD1 111819Z 02013KT 08/M10 A3032 RMK A01 T00791102  RH  026%=      5-min Rain = 0
KAD1 111820Z 02016KT 08/M10 A3032 RMK A01 T00781102  RH  027%=      5-min Rain = 0
KAD1 111821Z 03016KT 08/M10 A3032 RMK A01 T00751103  RH  027%=      5-min Rain = 0
KAD1 111822Z 03012KT 08/M10 A3032 RMK A01 T00751101  RH  028%=      5-min Rain = 0
KAD1 111823Z 02014G21KT 08/M10 A3032 RMK A01 T00801097  RH  028%=      5-min Rain = 0
KAD1 111824Z 02019KT 08/M10 A3032 RMK A01 T00811098  RH  027%=      5-min Rain = 0
KAD1 111825Z 02017KT 08/M10 A3032 RMK A01 T00811099  RH  027%=      5-min Rain = 0
KAD1 111826Z 02016KT 08/M10 A3032 RMK A01 T00811099  RH  027%=      5-min Rain = 0
KAD1 111827Z 03015KT 08/M10 A3032 RMK A01 T00781101  RH  027%=      5-min Rain = 0
KAD1 111828Z 01012KT 08/M10 A3032 RMK A01 T00771099  RH  028%=      5-min Rain = 0
KAD1 111829Z 02012KT 08/M10 A3032 RMK A01 T00781098  RH  028%=      5-min Rain = 0
KAD1 111830Z 03016KT 08/M10 A3032 RMK A01 T00811096  RH  027%=      5-min Rain = 0
KAD1 111831Z 03014KT 08/M10 A3032 RMK A01 T00811098  RH  027%=      5-min Rain = 0
KAD1 111832Z 03015KT 08/M10 A3032 RMK A01 T00801097  RH  027%=      5-min Rain = 0
KAD1 111833Z 04014KT 08/M10 A3032 RMK A01 T00791098  RH  027%=      5-min Rain = 0
KAD1 111834Z 04013KT 08/M10 A3032 RMK A01 T00781098  RH  028%=      5-min Rain = 0
KAD1 111835Z 03012KT 08/M10 A3032 RMK A01 T00781097  RH  028%=      5-min Rain = 0
KAD1 111836Z 04012KT 08/M10 A3032 RMK A01 T00791096  RH  028%=      5-min Rain = 0
KAD1 111837Z 03011G16KT 08/M10 A3032 RMK A01 T00801097  RH  027%=      5-min Rain = 0
KAD1 111838Z 01017KT 08/M10 A3032 RMK A01 T00811096  RH  027%=      5-min Rain = 0
KAD1 111839Z 35014KT 08/M10 A3032 RMK A01 T00811097  RH  027%=      5-min Rain = 0
KAD1 111840Z 01013KT 08/M10 A3032 RMK A01 T00811097  RH  027%=      5-min Rain = 0
KAD1 111841Z 03012KT 08/M10 A3032 RMK A01 T00811097  RH  027%=      5-min Rain = 0
KAD1 111842Z 03013KT 08/M10 A3032 RMK A01 T00811096  RH  027%=      5-min Rain = 0
KAD1 111843Z 03011KT 08/M10 A3032 RMK A01 T00811096  RH  027%=      5-min Rain = 0
KAD1 111844Z 03011KT 08/M10 A3032 RMK A01 T00811095  RH  028%=      5-min Rain = 0
KAD1 111845Z 03009KT 08/M10 A3032 RMK A01 T00811097  RH  027%=      5-min Rain = 0
KAD1 111846Z 03013KT 08/M10 A3032 RMK A01 T00801097  RH  027%=      5-min Rain = 0
KAD1 111847Z 02012KT 08/M10 A3032 RMK A01 T00811097  RH  027%=      5-min Rain = 0
KAD1 111848Z 01010KT 08/M10 A3032 RMK A01 T00841095  RH  027%=      5-min Rain = 0
KAD1 111849Z 02012KT 09/M09 A3032 RMK A01 T00871093  RH  027%=      5-min Rain = 0
KAD1 111850Z 03015KT 09/M10 A3032 RMK A01 T00881095  RH  026%=      5-min Rain = 0
KAD1 111851Z 03015KT 09/M10 A3032 RMK A01 T00851097  RH  026%=      5-min Rain = 0
KAD1 111852Z 03011KT 08/M10 A3032 RMK A01 T00821098  RH  027%=      5-min Rain = 0
KAD1 111853Z 01012KT 08/M10 A3032 RMK A01 T00831095  RH  027%=      5-min Rain = 0
KAD1 111854Z 00010KT 08/M10 A3032 RMK A01 T00841095  RH  027%=      5-min Rain = 0
KAD1 111855Z 35011KT 08/M09 A3032 RMK A01 T00841094  RH  027%=      5-min Rain = 0
KAD1 111856Z 01009KT 08/M10 A3032 RMK A01 T00841095  RH  027%=      5-min Rain = 0
KAD1 111857Z 01009KT 09/M09 A3032 RMK A01 T00851094  RH  027%=      5-min Rain = 0
KAD1 111858Z 00009KT 09/M09 A3032 RMK A01 T00891092  RH  027%=      5-min Rain = 0
KAD1 111859Z 02011KT 09/M09 A3032 RMK A01 T00891094  RH  026%=      5-min Rain = 0
KAD1 111900Z 02016G21KT 09/M09 A3032 RMK A01 T00881094  RH  027%=      5-min Rain = 0
KAD1 111901Z 02016KT 09/M09 A3032 RMK A01 T00881094  RH  027%=      5-min Rain = 0
KAD1 111902Z 02011KT 09/M10 A3032 RMK A01 T00861095  RH  027%=      5-min Rain = 0
KAD1 111903Z 00010KT 09/M09 A3032 RMK A01 T00851094  RH  027%=      5-min Rain = 0
KAD1 111904Z 01011KT 09/M09 A3032 RMK A01 T00891091  RH  027%=      5-min Rain = 0
KAD1 111905Z 36010KT 09/M09 A3032 RMK A01 T00931090  RH  026%=      5-min Rain = 0
KAD1 111906Z 35012G19KT 10/M09 A3032 RMK A01 T00951091  RH  026%=      5-min Rain = 0
KAD1 111907Z 01014KT 10/M09 A3032 RMK A01 T00961092  RH  026%=      5-min Rain = 0
KAD1 111908Z 00012KT 09/M09 A3032 RMK A01 T00941094  RH  025%=      5-min Rain = 0
KAD1 111909Z 36011KT 09/M10 A3032 RMK A01 T00911095  RH  026%=      5-min Rain = 0
KAD1 111910Z 01012G17KT 09/M09 A3032 RMK A01 T00921092  RH  026%=      5-min Rain = 0
KAD1 111911Z 02015KT 10/M09 A3032 RMK A01 T00951090  RH  026%=      5-min Rain = 0
KAD1 111912Z 03015KT 10/M09 A3031 RMK A01 T01001088  RH  026%=      5-min Rain = 0
KAD1 111913Z 04018KT 10/M09 A3031 RMK A01 T01021091  RH  025%=      5-min Rain = 0
KAD1 111914Z 03017KT 10/M09 A3031 RMK A01 T00991094  RH  025%=      5-min Rain = 0
KAD1 111915Z 04014KT 10/M10 A3032 RMK A01 T00951096  RH  025%=      5-min Rain = 0
KAD1 111916Z 03011KT 09/M09 A3031 RMK A01 T00931094  RH  026%=      5-min Rain = 0
KAD1 111917Z 02011G16KT 09/M09 A3031 RMK A01 T00931094  RH  026%=      5-min Rain = 0
KAD1 111918Z 36014KT 09/M09 A3032 RMK A01 T00941093  RH  026%=      5-min Rain = 0
KAD1 111919Z 00013KT 10/M09 A3032 RMK A01 T00951092  RH  026%=      5-min Rain = 0
KAD1 111920Z 01010G15KT 10/M09 A3032 RMK A01 T00971092  RH  025%=      5-min Rain = 0
KAD1 111921Z 01011KT 10/M09 A3031 RMK A01 T00961093  RH  025%=      5-min Rain = 0
KAD1 111922Z 02015KT 10/M09 A3031 RMK A01 T00971093  RH  025%=      5-min Rain = 0
KAD1 111923Z 00012KT 10/M10 A3031 RMK A01 T00951095  RH  025%=      5-min Rain = 0
KAD1 111924Z 01011KT 09/M09 A3031 RMK A01 T00941094  RH  026%=      5-min Rain = 0
KAD1 111925Z 03009G15KT 10/M09 A3031 RMK A01 T00991089  RH  026%=      5-min Rain = 0
KAD1 111926Z 03015KT 10/M09 A3031 RMK A01 T01011092  RH  025%=      5-min Rain = 0
KAD1 111927Z 02011KT 10/M10 A3031 RMK A01 T00961095  RH  025%=      5-min Rain = 0
KAD1 111928Z 34011KT 09/M09 A3031 RMK A01 T00941094  RH  026%=      5-min Rain = 0
KAD1 111929Z 34009KT 10/M09 A3031 RMK A01 T00951093  RH  025%=      5-min Rain = 0
KAD1 111930Z 01009KT 09/M09 A3031 RMK A01 T00941093  RH  026%=      5-min Rain = 0
KAD1 111931Z 02010KT 10/M09 A3031 RMK A01 T00961092  RH  026%=      5-min Rain = 0
KAD1 111932Z 01010KT 10/M09 A3031 RMK A01 T00971093  RH  025%=      5-min Rain = 0
KAD1 111933Z 01012KT 10/M09 A3031 RMK A01 T00971093  RH  025%=      5-min Rain = 0
KAD1 111934Z 36012KT 10/M09 A3031 RMK A01 T01011092  RH  025%=      5-min Rain = 0
KAD1 111935Z 01010KT 10/M09 A3031 RMK A01 T00991094  RH  025%=      5-min Rain = 0
KAD1 111936Z 01013KT 10/M09 A3031 RMK A01 T00991093  RH  025%=      5-min Rain = 0
KAD1 111937Z 01009KT 10/M09 A3031 RMK A01 T01011092  RH  025%=      5-min Rain = 0
KAD1 111938Z 01011KT 10/M09 A3031 RMK A01 T01021092  RH  025%=      5-min Rain = 0
KAD1 111939Z 02012KT 11/M09 A3031 RMK A01 T01061090  RH  024%=      5-min Rain = 0
KAD1 111940Z 03011KT 11/M09 A3031 RMK A01 T01081091  RH  024%=      5-min Rain = 0
KAD1 111941Z 04008KT 11/M09 A3031 RMK A01 T01131089  RH  023%=      5-min Rain = 0
KAD1 111942Z 04011G16KT 11/M09 A3031 RMK A01 T01101093  RH  023%=      5-min Rain = 0
KAD1 111943Z 03017G25KT 11/M09 A303 RMK A01 T01071094  RH  023%=      5-min Rain = 0
KAD1 111944Z 03018G23KT 10/M10 A3031 RMK A01 T01021096  RH  024%=      5-min Rain = 0
KAD1 111945Z 04012KT 10/M10 A3031 RMK A01 T00971097  RH  024%=      5-min Rain = 0
KAD1 111946Z 04011KT 09/M10 A3031 RMK A01 T00941098  RH  025%=      5-min Rain = 0
KAD1 111947Z 03011KT 09/M10 A3031 RMK A01 T00921095  RH  026%=      5-min Rain = 0
KAD1 111948Z 02011KT 10/M09 A3031 RMK A01 T00981092  RH  025%=      5-min Rain = 0
KAD1 111949Z 36010KT 10/M09 A3031 RMK A01 T01001093  RH  025%=      5-min Rain = 0
KAD1 111950Z 02011KT 10/M10 A3031 RMK A01 T01011096  RH  024%=      5-min Rain = 0
KAD1 111951Z 01010KT 10/M10 A3031 RMK A01 T00971098  RH  024%=      5-min Rain = 0
KAD1 111952Z 35009KT 10/M10 A3031 RMK A01 T00951097  RH  025%=      5-min Rain = 0
KAD1 111953Z 35011KT 10/M10 A3031 RMK A01 T00951099  RH  024%=      5-min Rain = 0
KAD1 111954Z 35011KT 09/M10 A3031 RMK A01 T00931099  RH  025%=      5-min Rain = 0
KAD1 111955Z 02010KT 09/M10 A3031 RMK A01 T00921096  RH  025%=      5-min Rain = 0
KAD1 111956Z 02013KT 09/M09 A3031 RMK A01 T00931094  RH  026%=      5-min Rain = 0
KAD1 111957Z 02014KT 10/M09 A3031 RMK A01 T00961094  RH  025%=      5-min Rain = 0
KAD1 111958Z 02016KT 10/M09 A303 RMK A01 T00961093  RH  025%=      5-min Rain = 0
KAD1 111959Z 03013KT 09/M10 A303 RMK A01 T00941095  RH  025%=      5-min Rain = 0
KAD1 112000Z 03014KT 09/M10 A303 RMK A01 T00921095  RH  026%=      5-min Rain = 0
KAD1 112001Z 03015KT 09/M10 A303 RMK A01 T00921095  RH  026%=      5-min Rain = 0
KAD1 112002Z 03013KT 09/M10 A303 RMK A01 T00901096  RH  026%=      5-min Rain = 0
KAD1 112003Z 02012KT 09/M10 A3031 RMK A01 T00901095  RH  026%=      5-min Rain = 0
KAD1 112004Z 02009KT 09/M09 A3031 RMK A01 T00911094  RH  026%=      5-min Rain = 0
KAD1 112005Z 02011KT 09/M09 A3031 RMK A01 T00911094  RH  026%=      5-min Rain = 0
KAD1 112006Z 03014KT 09/M09 A3031 RMK A01 T00921094  RH  026%=      5-min Rain = 0
KAD1 112007Z 03013KT 09/M10 A3031 RMK A01 T00921096  RH  025%=      5-min Rain = 0
KAD1 112008Z 02014KT 09/M10 A3031 RMK A01 T00891097  RH  026%=      5-min Rain = 0
KAD1 112009Z 02014KT 09/M10 A3031 RMK A01 T00901096  RH  026%=      5-min Rain = 0
KAD1 112010Z 03014KT 09/M10 A3031 RMK A01 T00901096  RH  026%=      5-min Rain = 0
KAD1 112011Z 03013KT 09/M10 A3031 RMK A01 T00891096  RH  026%=      5-min Rain = 0
KAD1 112012Z 04011KT 09/M10 A303 RMK A01 T00881096  RH  026%=      5-min Rain = 0
KAD1 112013Z 03010KT 09/M10 A303 RMK A01 T00881095  RH  026%=      5-min Rain = 0
KAD1 112014Z 04009KT 09/M10 A303 RMK A01 T00881095  RH  027%=      5-min Rain = 0
KAD1 112015Z 03011KT 09/M09 A303 RMK A01 T00901093  RH  026%=      5-min Rain = 0
KAD1 112016Z 02011G17KT 09/M09 A303 RMK A01 T00931093  RH  026%=      5-min Rain = 0
KAD1 112017Z 02009G14KT 09/M09 A303 RMK A01 T00941094  RH  025%=      5-min Rain = 0
KAD1 112018Z 00011KT 09/M10 A303 RMK A01 T00921096  RH  025%=      5-min Rain = 0
KAD1 112019Z 02011KT 09/M10 A303 RMK A01 T00901096  RH  026%=      5-min Rain = 0
KAD1 112020Z 02010G16KT 09/M10 A303 RMK A01 T00901095  RH  026%=      5-min Rain = 0
KAD1 112021Z 02012KT 09/M10 A303 RMK A01 T00901095  RH  026%=      5-min Rain = 0
KAD1 112022Z 02010KT 09/M10 A303 RMK A01 T00881096  RH  026%=      5-min Rain = 0
KAD1 112023Z 01009KT 09/M10 A303 RMK A01 T00861096  RH  027%=      5-min Rain = 0
KAD1 112024Z 35010KT 09/M10 A303 RMK A01 T00861095  RH  027%=      5-min Rain = 0
KAD1 112025Z 01010KT 09/M09 A303 RMK A01 T00871094  RH  027%=      5-min Rain = 0
KAD1 112026Z 00008KT 09/M09 A303 RMK A01 T00871093  RH  027%=      5-min Rain = 0
KAD1 112027Z 01006KT 09/M09 A303 RMK A01 T00861094  RH  027%=      5-min Rain = 0
KAD1 112028Z 36007KT 09/M09 A303 RMK A01 T00851094  RH  027%=      5-min Rain = 0
KAD1 112029Z 01004KT 09/M09 A303 RMK A01 T00851093  RH  027%=      5-min Rain = 0
KAD1 112030Z 03005KT 09/M09 A303 RMK A01 T00871092  RH  027%=      5-min Rain = 0
KAD1 112031Z 03005KT 09/M09 A303 RMK A01 T00881091  RH  027%=      5-min Rain = 0
KAD1 112032Z 02005KT 09/M09 A303 RMK A01 T00911091  RH  027%=      5-min Rain = 0
KAD1 112033Z 03006KT 09/M09 A303 RMK A01 T00921091  RH  026%=      5-min Rain = 0
KAD1 112034Z 01006KT 09/M09 A303 RMK A01 T00941090  RH  026%=      5-min Rain = 0
KAD1 112035Z 03004KT 10/M09 A303 RMK A01 T00951090  RH  026%=      5-min Rain = 0
KAD1 112036Z 01006KT 10/M09 A303 RMK A01 T00951092  RH  026%=      5-min Rain = 0
KAD1 112037Z 02009KT 09/M10 A303 RMK A01 T00941098  RH  025%=      5-min Rain = 0
KAD1 112038Z 36011KT 09/M10 A303 RMK A01 T00941102  RH  024%=      5-min Rain = 0
KAD1 112039Z 00011KT 10/M10 A303 RMK A01 T00951103  RH  024%=      5-min Rain = 0
KAD1 112040Z 01011KT 09/M10 A303 RMK A01 T00941104  RH  023%=      5-min Rain = 0
KAD1 112041Z 01009KT 09/M10 A303 RMK A01 T00941103  RH  024%=      5-min Rain = 0
KAD1 112042Z 01008KT 10/M10 A3029 RMK A01 T00951101  RH  024%=      5-min Rain = 0
KAD1 112043Z 00008KT 10/M10 A3029 RMK A01 T00961101  RH  024%=      5-min Rain = 0
KAD1 112044Z 35012KT 10/M10 A3029 RMK A01 T00981100  RH  024%=      5-min Rain = 0
KAD1 112045Z 35012KT 10/M10 A3029 RMK A01 T00971102  RH  024%=      5-min Rain = 0
KAD1 112046Z 35010KT 10/M10 A3029 RMK A01 T00991100  RH  024%=      5-min Rain = 0
KAD1 112047Z 35011KT 10/M10 A303 RMK A01 T01011101  RH  023%=      5-min Rain = 0
KAD1 112048Z 35011KT 10/M10 A303 RMK A01 T01001102  RH  023%=      5-min Rain = 0
KAD1 112049Z 35008KT 10/M10 A303 RMK A01 T00981102  RH  023%=      5-min Rain = 0
KAD1 112050Z 34009KT 10/M10 A303 RMK A01 T01011098  RH  023%=      5-min Rain = 0
KAD1 112051Z 35009KT 10/M10 A303 RMK A01 T01011101  RH  023%=      5-min Rain = 0
KAD1 112052Z 35008KT 10/M10 A303 RMK A01 T01011098  RH  024%=      5-min Rain = 0
KAD1 112053Z 36011G17KT 10/M10 A303 RMK A01 T01021098  RH  023%=      5-min Rain = 0
KAD1 112054Z 01015KT 10/M10 A303 RMK A01 T01011103  RH  023%=      5-min Rain = 0
KAD1 112055Z 02014KT 10/M11 A303 RMK A01 T00981107  RH  022%=      5-min Rain = 0
KAD1 112056Z 02014KT 10/M11 A303 RMK A01 T00981106  RH  023%=      5-min Rain = 0
KAD1 112057Z 02011G16KT 10/M11 A303 RMK A01 T00981105  RH  023%=      5-min Rain = 0
KAD1 112058Z 02012KT 10/M11 A303 RMK A01 T00981105  RH  023%=      5-min Rain = 0
KAD1 112059Z 01013KT 10/M10 A3029 RMK A01 T00991104  RH  023%=      5-min Rain = 0
KAD1 112100Z 35011KT 10/M10 A3029 RMK A01 T00991104  RH  023%=      5-min Rain = 0
KAD1 112101Z 01011G17KT 10/M10 A3029 RMK A01 T00981104  RH  023%=      5-min Rain = 0
KAD1 112102Z 02011KT 10/M10 A3029 RMK A01 T01011102  RH  023%=      5-min Rain = 0
KAD1 112103Z 02011KT 10/M10 A3029 RMK A01 T01031102  RH  023%=      5-min Rain = 0
KAD1 112104Z 03011KT 10/M11 A3029 RMK A01 T01031105  RH  022%=      5-min Rain = 0
KAD1 112105Z 03011KT 10/M11 A3029 RMK A01 T01041105  RH  022%=      5-min Rain = 0
KAD1 112106Z 04009KT 10/M11 A3029 RMK A01 T01041106  RH  022%=      5-min Rain = 0
KAD1 112107Z 03014KT 10/M11 A3029 RMK A01 T01031106  RH  022%=      5-min Rain = 0
KAD1 112108Z 02013KT 10/M11 A3029 RMK A01 T01011107  RH  022%=      5-min Rain = 0
KAD1 112109Z 02007G12KT 10/M11 A3029 RMK A01 T00991108  RH  022%=      5-min Rain = 0
KAD1 112110Z 03006G11KT 10/M11 A3029 RMK A01 T00951110  RH  022%=      5-min Rain = 0
KAD1 112111Z 05008KT 09/M11 A3029 RMK A01 T00941108  RH  023%=      5-min Rain = 0
KAD1 112112Z 03009KT 09/M11 A3029 RMK A01 T00941107  RH  023%=      5-min Rain = 0
KAD1 112113Z 04013KT 10/M11 A3029 RMK A01 T00961105  RH  023%=      5-min Rain = 0
KAD1 112114Z 01011KT 10/M11 A3029 RMK A01 T00981105  RH  023%=      5-min Rain = 0
KAD1 112115Z 35011KT 10/M11 A3029 RMK A01 T00991105  RH  023%=      5-min Rain = 0
KAD1 112116Z 36010KT 10/M11 A3029 RMK A01 T00981106  RH  022%=      5-min Rain = 0
KAD1 112117Z 36011KT 10/M11 A3029 RMK A01 T00971107  RH  023%=      5-min Rain = 0
KAD1 112118Z 36008KT 10/M11 A3029 RMK A01 T00971107  RH  022%=      5-min Rain = 0
KAD1 112119Z 01007KT 10/M11 A3029 RMK A01 T00971108  RH  022%=      5-min Rain = 0
KAD1 112120Z 01010G16KT 10/M11 A3029 RMK A01 T00981106  RH  022%=      5-min Rain = 0
KAD1 112121Z 02014KT 10/M11 A3029 RMK A01 T01021110  RH  021%=      5-min Rain = 0
KAD1 112122Z 03013KT 10/M12 A3029 RMK A01 T01021116  RH  020%=      5-min Rain = 0
KAD1 112123Z 02014KT 10/M12 A3029 RMK A01 T01011117  RH  020%=      5-min Rain = 0
KAD1 112124Z 03012KT 10/M12 A3029 RMK A01 T00971120  RH  020%=      5-min Rain = 0
KAD1 112125Z 01013KT 10/M12 A3029 RMK A01 T00961118  RH  021%=      5-min Rain = 0
KAD1 112126Z 01008KT 10/M12 A3029 RMK A01 T00961117  RH  021%=      5-min Rain = 0
KAD1 112127Z 02008KT 10/M12 A3029 RMK A01 T00961117  RH  021%=      5-min Rain = 0
KAD1 112128Z 02010KT 10/M12 A3029 RMK A01 T00971115  RH  021%=      5-min Rain = 0
KAD1 112129Z 03009KT 10/M12 A3029 RMK A01 T00981116  RH  021%=      5-min Rain = 0
KAD1 112130Z 02010G15KT 10/M11 A3029 RMK A01 T00991114  RH  021%=      5-min Rain = 0
KAD1 112131Z 04011KT 10/M11 A3029 RMK A01 T01021112  RH  021%=      5-min Rain = 0
KAD1 112132Z 04009KT 10/M11 A3029 RMK A01 T01041112  RH  021%=      5-min Rain = 0
KAD1 112133Z 01010KT 11/M11 A3029 RMK A01 T01061112  RH  020%=      5-min Rain = 0
KAD1 112134Z 00011KT 11/M11 A3029 RMK A01 T01061113  RH  020%=      5-min Rain = 0
KAD1 112135Z 02011KT 10/M11 A3029 RMK A01 T01021114  RH  021%=      5-min Rain = 0
KAD1 112136Z 02009KT 10/M11 A3029 RMK A01 T01021113  RH  021%=      5-min Rain = 0
KAD1 112137Z 03008KT 10/M11 A3028 RMK A01 T00991114  RH  021%=      5-min Rain = 0
KAD1 112138Z 01011KT 10/M11 A3028 RMK A01 T00991113  RH  021%=      5-min Rain = 0
KAD1 112139Z 02009KT 10/M11 A3028 RMK A01 T00981112  RH  021%=      5-min Rain = 0
KAD1 112140Z 02008KT 10/M11 A3028 RMK A01 T00971113  RH  021%=      5-min Rain = 0
KAD1 112141Z 01011KT 10/M11 A3028 RMK A01 T00971113  RH  021%=      5-min Rain = 0
KAD1 112142Z 01013KT 10/M11 A3028 RMK A01 T00981114  RH  021%=      5-min Rain = 0
KAD1 112143Z 00013KT 10/M12 A3028 RMK A01 T00971116  RH  021%=      5-min Rain = 0
KAD1 112144Z 01011KT 10/M12 A3028 RMK A01 T00951115  RH  021%=      5-min Rain = 0
KAD1 112145Z 01011KT 10/M11 A3028 RMK A01 T00951114  RH  022%=      5-min Rain = 0
KAD1 112146Z 02013KT 10/M11 A3028 RMK A01 T00961112  RH  022%=      5-min Rain = 0
KAD1 112147Z 03012KT 10/M11 A3028 RMK A01 T00991110  RH  022%=      5-min Rain = 0
KAD1 112148Z 02012KT 10/M11 A3028 RMK A01 T01021110  RH  021%=      5-min Rain = 0
KAD1 112149Z 03010KT 10/M11 A3028 RMK A01 T01021112  RH  021%=      5-min Rain = 0
KAD1 112150Z 04008KT 10/M11 A3028 RMK A01 T01011113  RH  021%=      5-min Rain = 0
KAD1 112151Z 04004KT 10/M11 A3028 RMK A01 T01031111  RH  021%=      5-min Rain = 0
KAD1 112152Z 04005KT 11/M11 A3028 RMK A01 T01051110  RH  021%=      5-min Rain = 0
KAD1 112153Z 05006KT 11/M11 A3028 RMK A01 T01071110  RH  021%=      5-min Rain = 0
KAD1 112154Z 04007KT 11/M11 A3028 RMK A01 T01101108  RH  020%=      5-min Rain = 0
KAD1 112155Z 06007KT 11/M11 A3028 RMK A01 T01121111  RH  020%=      5-min Rain = 0
KAD1 112156Z 04007G12KT 11/M12 A3028 RMK A01 T01101115  RH  019%=      5-min Rain = 0
KAD1 112157Z 01011KT 11/M11 A3028 RMK A01 T01101113  RH  020%=      5-min Rain = 0
KAD1 112158Z 35009KT 11/M12 A3028 RMK A01 T01111115  RH  019%=      5-min Rain = 0
KAD1 112159Z 01012KT 11/M12 A3028 RMK A01 T01111117  RH  019%=      5-min Rain = 0
KAD1 112200Z 03012KT 11/M12 A3028 RMK A01 T01091119  RH  019%=      5-min Rain = 0
KAD1 112201Z 04014KT 11/M12 A3028 RMK A01 T01101118  RH  019%=      5-min Rain = 0
KAD1 112202Z 03017KT 11/M12 A3028 RMK A01 T01121117  RH  019%=      5-min Rain = 0
KAD1 112203Z 03016KT 11/M12 A3028 RMK A01 T01121119  RH  019%=      5-min Rain = 0
KAD1 112204Z 03016KT 11/M12 A3028 RMK A01 T01111121  RH  018%=      5-min Rain = 0
KAD1 112205Z 03012KT 11/M12 A3028 RMK A01 T01101122  RH  018%=      5-min Rain = 0
KAD1 112206Z 03011KT 11/M12 A3028 RMK A01 T01091121  RH  019%=      5-min Rain = 0
KAD1 112207Z 02015KT 11/M12 A3028 RMK A01 T01111118  RH  019%=      5-min Rain = 0
KAD1 112208Z 03016KT 11/M12 A3028 RMK A01 T01131118  RH  019%=      5-min Rain = 0
KAD1 112209Z 03012KT 11/M12 A3028 RMK A01 T01141118  RH  018%=      5-min Rain = 0
KAD1 112210Z 03013KT 12/M12 A3028 RMK A01 T01151119  RH  018%=      5-min Rain = 0
KAD1 112211Z 03010KT 12/M12 A3028 RMK A01 T01171118  RH  018%=      5-min Rain = 0
KAD1 112212Z 03008KT 11/M12 A3028 RMK A01 T01141119  RH  018%=      5-min Rain = 0
KAD1 112213Z 36007KT 11/M12 A3028 RMK A01 T01141118  RH  018%=      5-min Rain = 0
KAD1 112214Z 02006KT 12/M12 A3028 RMK A01 T01151117  RH  019%=      5-min Rain = 0
KAD1 112215Z 05011KT 12/M12 A3028 RMK A01 T01181115  RH  018%=      5-min Rain = 0
KAD1 112216Z 04013KT 12/M12 A3028 RMK A01 T01181117  RH  018%=      5-min Rain = 0
KAD1 112217Z 05013KT 12/M12 A3028 RMK A01 T01161119  RH  018%=      5-min Rain = 0
KAD1 112218Z 03011KT 12/M12 A3028 RMK A01 T01151119  RH  018%=      5-min Rain = 0
KAD1 112219Z 03015KT 12/M12 A3028 RMK A01 T01181117  RH  018%=      5-min Rain = 0
KAD1 112220Z 02014KT 12/M12 A3028 RMK A01 T01171120  RH  018%=      5-min Rain = 0
KAD1 112221Z 04012KT 11/M12 A3028 RMK A01 T01131122  RH  018%=      5-min Rain = 0
KAD1 112222Z 03013KT 11/M12 A3028 RMK A01 T01131121  RH  018%=      5-min Rain = 0
KAD1 112223Z 03012KT 11/M12 A3028 RMK A01 T01131120  RH  018%=      5-min Rain = 0
KAD1 112224Z 01013KT 11/M12 A3028 RMK A01 T01141120  RH  018%=      5-min Rain = 0
KAD1 112225Z 01012KT 11/M12 A3028 RMK A01 T01121121  RH  018%=      5-min Rain = 0
KAD1 112226Z 02010KT 11/M12 A3028 RMK A01 T01101121  RH  018%=      5-min Rain = 0
KAD1 112227Z 03011KT 11/M12 A3028 RMK A01 T01121118  RH  019%=      5-min Rain = 0
KAD1 112228Z 03008KT 11/M12 A3028 RMK A01 T01121119  RH  018%=      5-min Rain = 0
KAD1 112229Z 05008KT 11/M12 A3028 RMK A01 T01131119  RH  018%=      5-min Rain = 0
KAD1 112230Z 04013KT 12/M12 A3027 RMK A01 T01151118  RH  018%=      5-min Rain = 0
KAD1 112231Z 02010KT 12/M12 A3028 RMK A01 T01171117  RH  018%=      5-min Rain = 0
KAD1 112232Z 03013KT 12/M12 A3028 RMK A01 T01191115  RH  018%=      5-min Rain = 0
KAD1 112233Z 04014KT 12/M12 A3028 RMK A01 T01171117  RH  018%=      5-min Rain = 0
KAD1 112234Z 04014KT 11/M12 A3028 RMK A01 T01141117  RH  019%=      5-min Rain = 0
KAD1 112235Z 04013KT 11/M12 A3028 RMK A01 T01121116  RH  019%=      5-min Rain = 0
KAD1 112236Z 02013KT 11/M12 A3028 RMK A01 T01111115  RH  019%=      5-min Rain = 0
KAD1 112237Z 03011KT 11/M12 A3028 RMK A01 T01101115  RH  019%=      5-min Rain = 0
KAD1 112238Z 04008KT 11/M11 A3028 RMK A01 T01111113  RH  020%=      5-min Rain = 0
KAD1 112239Z 02008KT 11/M11 A3028 RMK A01 T01121113  RH  020%=      5-min Rain = 0
KAD1 112240Z 00011KT 11/M11 A3028 RMK A01 T01101114  RH  020%=      5-min Rain = 0
KAD1 112241Z 02012KT 11/M11 A3028 RMK A01 T01081114  RH  020%=      5-min Rain = 0
KAD1 112242Z 01010KT 11/M11 A3028 RMK A01 T01081114  RH  020%=      5-min Rain = 0
KAD1 112243Z 02010KT 11/M12 A3028 RMK A01 T01071115  RH  020%=      5-min Rain = 0
KAD1 112244Z 03013KT 11/M12 A3028 RMK A01 T01051115  RH  020%=      5-min Rain = 0
KAD1 112245Z 04010KT 11/M11 A3028 RMK A01 T01051113  RH  020%=      5-min Rain = 0
KAD1 112246Z 03010KT 10/M11 A3028 RMK A01 T01041112  RH  021%=      5-min Rain = 0
KAD1 112247Z 03009KT 10/M11 A3028 RMK A01 T01041113  RH  021%=      5-min Rain = 0
KAD1 112248Z 01010KT 10/M11 A3028 RMK A01 T01041113  RH  021%=      5-min Rain = 0
KAD1 112249Z 02009KT 10/M11 A3029 RMK A01 T01041113  RH  021%=      5-min Rain = 0
KAD1 112250Z 01011KT 10/M11 A3029 RMK A01 T01031113  RH  021%=      5-min Rain = 0
KAD1 112251Z 02010KT 10/M11 A3029 RMK A01 T01021114  RH  021%=      5-min Rain = 0
KAD1 112252Z 03011KT 10/M12 A3029 RMK A01 T01011115  RH  021%=      5-min Rain = 0
KAD1 112253Z 02009KT 10/M11 A3029 RMK A01 T01011114  RH  021%=      5-min Rain = 0
KAD1 112254Z 03010KT 10/M11 A3029 RMK A01 T01001114  RH  021%=      5-min Rain = 0
KAD1 112255Z 04010KT 10/M11 A3029 RMK A01 T01001114  RH  021%=      5-min Rain = 0
KAD1 112256Z 04006KT 10/M12 A3029 RMK A01 T01001115  RH  021%=      5-min Rain = 0
KAD1 112257Z 02006KT 10/M12 A3029 RMK A01 T01001115  RH  021%=      5-min Rain = 0
KAD1 112258Z 01008KT 10/M11 A3029 RMK A01 T01011114  RH  021%=      5-min Rain = 0
KAD1 112259Z 04007KT 10/M11 A3029 RMK A01 T01021113  RH  021%=      5-min Rain = 0
KAD1 112300Z 04006KT 10/M11 A3029 RMK A01 T01031113  RH  021%=      5-min Rain = 0
KAD1 112301Z 05005KT 10/M11 A3029 RMK A01 T01041114  RH  020%=      5-min Rain = 0
KAD1 112302Z 06006KT 10/M11 A3029 RMK A01 T01041114  RH  020%=      5-min Rain = 0
KAD1 112303Z 04007KT 11/M11 A3029 RMK A01 T01051114  RH  020%=      5-min Rain = 0
KAD1 112304Z 05010KT 11/M12 A3029 RMK A01 T01061115  RH  020%=      5-min Rain = 0
KAD1 112305Z 04011KT 11/M12 A3029 RMK A01 T01061117  RH  020%=      5-min Rain = 0
KAD1 112306Z 04011KT 11/M12 A3029 RMK A01 T01071118  RH  019%=      5-min Rain = 0
KAD1 112307Z 05011KT 11/M12 A3029 RMK A01 T01061118  RH  019%=      5-min Rain = 0
KAD1 112308Z 03014KT 11/M12 A3029 RMK A01 T01071117  RH  019%=      5-min Rain = 0
KAD1 112309Z 03013KT 11/M12 A3029 RMK A01 T01071120  RH  019%=      5-min Rain = 0
KAD1 112310Z 04011KT 11/M12 A3029 RMK A01 T01061121  RH  019%=      5-min Rain = 0
KAD1 112311Z 04013KT 11/M12 A3029 RMK A01 T01061121  RH  019%=      5-min Rain = 0
KAD1 112312Z 04012KT 11/M12 A3029 RMK A01 T01051122  RH  019%=      5-min Rain = 0
KAD1 112313Z 03011KT 11/M12 A3029 RMK A01 T01061121  RH  019%=      5-min Rain = 0
KAD1 112314Z 02010KT 11/M12 A3029 RMK A01 T01071122  RH  019%=      5-min Rain = 0
KAD1 112315Z 02009KT 11/M12 A3029 RMK A01 T01071122  RH  019%=      5-min Rain = 0
KAD1 112316Z 03008KT 11/M12 A303 RMK A01 T01071121  RH  019%=      5-min Rain = 0
KAD1 112317Z 03007KT 11/M12 A303 RMK A01 T01091121  RH  019%=      5-min Rain = 0
KAD1 112318Z 04006KT 11/M12 A303 RMK A01 T01071123  RH  019%=      5-min Rain = 0
KAD1 112319Z 06007KT 11/M12 A3029 RMK A01 T01071122  RH  019%=      5-min Rain = 0
KAD1 112320Z 03007KT 11/M12 A3029 RMK A01 T01091121  RH  019%=      5-min Rain = 0
KAD1 112321Z 02009KT 11/M12 A3029 RMK A01 T01101121  RH  019%=      5-min Rain = 0
KAD1 112322Z 01008KT 11/M12 A303 RMK A01 T01091123  RH  018%=      5-min Rain = 0
KAD1 112323Z 02008G14KT 11/M12 A303 RMK A01 T01081124  RH  018%=      5-min Rain = 0
KAD1 112324Z 03011KT 11/M13 A303 RMK A01 T01071125  RH  018%=      5-min Rain = 0
KAD1 112325Z 05012KT 11/M13 A303 RMK A01 T01071126  RH  018%=      5-min Rain = 0
KAD1 112326Z 05009KT 10/M13 A303 RMK A01 T01041129  RH  018%=      5-min Rain = 0
KAD1 112327Z 05008KT 10/M13 A303 RMK A01 T01031129  RH  018%=      5-min Rain = 0
KAD1 112328Z 01007KT 10/M13 A303 RMK A01 T01031128  RH  018%=      5-min Rain = 0
KAD1 112329Z 02008KT 10/M13 A303 RMK A01 T01041127  RH  018%=      5-min Rain = 0
KAD1 112330Z 01008KT 11/M13 A303 RMK A01 T01051127  RH  018%=      5-min Rain = 0
KAD1 112331Z 05010KT 11/M13 A303 RMK A01 T01061126  RH  018%=      5-min Rain = 0
KAD1 112332Z 06008KT 11/M13 A303 RMK A01 T01061128  RH  018%=      5-min Rain = 0
KAD1 112333Z 04010G15KT 11/M13 A303 RMK A01 T01051128  RH  018%=      5-min Rain = 0
KAD1 112334Z 03014KT 11/M13 A303 RMK A01 T01051126  RH  018%=      5-min Rain = 0
KAD1 112335Z 03012KT 11/M13 A303 RMK A01 T01061125  RH  018%=      5-min Rain = 0
KAD1 112336Z 02011KT 11/M12 A303 RMK A01 T01051124  RH  019%=      5-min Rain = 0
KAD1 112337Z 02011KT 10/M13 A303 RMK A01 T01041125  RH  019%=      5-min Rain = 0
KAD1 112338Z 02010KT 10/M13 A303 RMK A01 T01021126  RH  019%=      5-min Rain = 0
KAD1 112339Z 03010KT 10/M13 A303 RMK A01 T01001126  RH  019%=      5-min Rain = 0
KAD1 112340Z 02009KT 10/M13 A303 RMK A01 T01001125  RH  019%=      5-min Rain = 0
KAD1 112341Z 01009KT 10/M13 A303 RMK A01 T01001125  RH  019%=      5-min Rain = 0
KAD1 112342Z 00010KT 10/M13 A303 RMK A01 T00991125  RH  019%=      5-min Rain = 0
KAD1 112343Z 00008KT 10/M13 A303 RMK A01 T00981126  RH  019%=      5-min Rain = 0
KAD1 112344Z 02009KT 10/M13 A303 RMK A01 T00981125  RH  019%=      5-min Rain = 0
KAD1 112345Z 02008KT 10/M13 A303 RMK A01 T00971126  RH  019%=      5-min Rain = 0
KAD1 112346Z 03011KT 10/M13 A303 RMK A01 T00961125  RH  020%=      5-min Rain = 0
KAD1 112347Z 02012KT 10/M13 A303 RMK A01 T00951125  RH  020%=      5-min Rain = 0
KAD1 112348Z 00009KT 09/M13 A3031 RMK A01 T00941125  RH  020%=      5-min Rain = 0
KAD1 112349Z 01008KT 09/M13 A303 RMK A01 T00941125  RH  020%=      5-min Rain = 0
KAD1 112350Z 04007KT 09/M12 A303 RMK A01 T00941124  RH  020%=      5-min Rain = 0
KAD1 112351Z 05007KT 09/M13 A303 RMK A01 T00931125  RH  020%=      5-min Rain = 0
KAD1 112352Z 04007KT 09/M13 A303 RMK A01 T00931125  RH  020%=      5-min Rain = 0
KAD1 112353Z 05008KT 09/M13 A303 RMK A01 T00921125  RH  020%=      5-min Rain = 0
KAD1 112354Z 05009KT 09/M13 A303 RMK A01 T00911125  RH  020%=      5-min Rain = 0
KAD1 112355Z 05008KT 09/M13 A303 RMK A01 T00901127  RH  020%=      5-min Rain = 0
KAD1 112356Z 06006KT 09/M13 A303 RMK A01 T00911127  RH  020%=      5-min Rain = 0
KAD1 112357Z 05006KT 09/M13 A303 RMK A01 T00911127  RH  020%=      5-min Rain = 0
KAD1 112358Z 03006KT 09/M13 A303 RMK A01 T00901128  RH  020%=      5-min Rain = 0
KAD1 112359Z 03006KT 09/M13 A303 RMK A01 T00901127  RH  020%=      5-min Rain = 0
KAD1 120000Z 03008KT 09/M13 A303 RMK A01 T00901127  RH  020%=      5-min Rain = 0
KAD1 120001Z 03008KT 09/M13 A303 RMK A01 T00911128  RH  020%=      5-min Rain = 0
KAD1 120002Z 03007KT 09/M13 A303 RMK A01 T00911129  RH  020%=      5-min Rain = 0
KAD1 120003Z 04009KT 09/M13 A303 RMK A01 T00911129  RH  020%=      5-min Rain = 0
KAD1 120004Z 04008KT 09/M13 A303 RMK A01 T00911129  RH  020%=      5-min Rain = 0
KAD1 120005Z 05008KT 09/M13 A303 RMK A01 T00901130  RH  020%=      5-min Rain = 0
KAD1 120006Z 05007KT 09/M13 A303 RMK A01 T00901130  RH  020%=      5-min Rain = 0
KAD1 120007Z 04009KT 09/M13 A303 RMK A01 T00901129  RH  020%=      5-min Rain = 0
KAD1 120008Z 04011KT 09/M13 A303 RMK A01 T00891128  RH  020%=      5-min Rain = 0
KAD1 120009Z 04012KT 09/M13 A303 RMK A01 T00891127  RH  020%=      5-min Rain = 0
KAD1 120010Z 03010KT 09/M13 A303 RMK A01 T00891126  RH  020%=      5-min Rain = 0
KAD1 120011Z 03009KT 09/M13 A303 RMK A01 T00901126  RH  020%=      5-min Rain = 0
KAD1 120012Z 04008KT 09/M13 A303 RMK A01 T00901125  RH  020%=      5-min Rain = 0
KAD1 120013Z 04008KT 09/M13 A303 RMK A01 T00901125  RH  020%=      5-min Rain = 0
KAD1 120014Z 03008KT 09/M13 A303 RMK A01 T00891126  RH  021%=      5-min Rain = 0
KAD1 120015Z 04009KT 09/M13 A303 RMK A01 T00891125  RH  021%=      5-min Rain = 0
KAD1 120016Z 04009KT 09/M12 A3031 RMK A01 T00881124  RH  021%=      5-min Rain = 0
KAD1 120017Z 03009KT 09/M12 A3031 RMK A01 T00881124  RH  021%=      5-min Rain = 0
KAD1 120018Z 04008KT 09/M12 A3031 RMK A01 T00881124  RH  021%=      5-min Rain = 0
KAD1 120019Z 04008KT 09/M12 A3031 RMK A01 T00871124  RH  021%=      5-min Rain = 0
KAD1 120020Z 04008KT 09/M12 A3031 RMK A01 T00861124  RH  021%=      5-min Rain = 0
KAD1 120021Z 04008KT 09/M12 A3031 RMK A01 T00861124  RH  021%=      5-min Rain = 0
KAD1 120022Z 04007KT 09/M12 A3031 RMK A01 T00861123  RH  021%=      5-min Rain = 0
KAD1 120023Z 05007KT 09/M12 A3031 RMK A01 T00851123  RH  021%=      5-min Rain = 0
KAD1 120024Z 04007KT 08/M12 A3031 RMK A01 T00841124  RH  022%=      5-min Rain = 0
KAD1 120025Z 04008KT 08/M12 A3031 RMK A01 T00841123  RH  022%=      5-min Rain = 0
KAD1 120026Z 04007KT 08/M12 A3031 RMK A01 T00841123  RH  022%=      5-min Rain = 0
KAD1 120027Z 04007KT 08/M12 A3031 RMK A01 T00831123  RH  022%=      5-min Rain = 0
KAD1 120028Z 05007KT 08/M12 A3031 RMK A01 T00831123  RH  022%=      5-min Rain = 0
KAD1 120029Z 05006KT 08/M12 A3031 RMK A01 T00831123  RH  022%=      5-min Rain = 0
KAD1 120030Z 04007KT 08/M12 A3031 RMK A01 T00821124  RH  022%=      5-min Rain = 0
KAD1 120031Z 03006KT 08/M12 A3031 RMK A01 T00811124  RH  022%=      5-min Rain = 0
KAD1 120032Z 04006KT 08/M12 A3031 RMK A01 T00811123  RH  022%=      5-min Rain = 0
KAD1 120033Z 04006KT 08/M12 A3031 RMK A01 T00801124  RH  022%=      5-min Rain = 0
KAD1 120034Z 04006KT 08/M12 A3031 RMK A01 T00801123  RH  022%=      5-min Rain = 0
KAD1 120035Z 04006KT 08/M12 A3031 RMK A01 T00801122  RH  022%=      5-min Rain = 0
KAD1 120036Z 04006KT 08/M12 A3031 RMK A01 T00801121  RH  023%=      5-min Rain = 0
KAD1 120037Z 04007KT 08/M12 A3031 RMK A01 T00791121  RH  023%=      5-min Rain = 0
KAD1 120038Z 04006KT 08/M12 A3031 RMK A01 T00781122  RH  023%=      5-min Rain = 0
KAD1 120039Z 04006KT 08/M12 A3031 RMK A01 T00781122  RH  023%=      5-min Rain = 0
KAD1 120040Z 04006KT 08/M12 A3031 RMK A01 T00781122  RH  023%=      5-min Rain = 0
KAD1 120041Z 04006KT 08/M12 A3031 RMK A01 T00771122  RH  023%=      5-min Rain = 0
KAD1 120042Z 04006KT 08/M12 A3031 RMK A01 T00761122  RH  023%=      5-min Rain = 0
KAD1 120043Z 04005KT 08/M12 A3031 RMK A01 T00751123  RH  023%=      5-min Rain = 0
KAD1 120044Z 04005KT 08/M12 A3031 RMK A01 T00751123  RH  023%=      5-min Rain = 0
KAD1 120045Z 05005KT 07/M12 A3031 RMK A01 T00741123  RH  023%=      5-min Rain = 0
KAD1 120046Z 04005KT 07/M12 A3031 RMK A01 T00731123  RH  023%=      5-min Rain = 0
KAD1 120047Z 04005KT 07/M12 A3031 RMK A01 T00721122  RH  024%=      5-min Rain = 0
KAD1 120048Z 05005KT 07/M12 A3031 RMK A01 T00721123  RH  024%=      5-min Rain = 0
KAD1 120049Z 05005KT 07/M12 A3031 RMK A01 T00721122  RH  024%=      5-min Rain = 0
KAD1 120050Z 05005KT 07/M12 A3032 RMK A01 T00721122  RH  024%=      5-min Rain = 0
KAD1 120051Z 05005KT 07/M12 A3032 RMK A01 T00721121  RH  024%=      5-min Rain = 0
KAD1 120052Z 05004KT 07/M12 A3032 RMK A01 T00711122  RH  024%=      5-min Rain = 0
KAD1 120053Z 07004KT 07/M12 A3032 RMK A01 T00701122  RH  024%=      5-min Rain = 0
KAD1 120054Z 07005KT 07/M12 A3032 RMK A01 T00691122  RH  024%=      5-min Rain = 0
KAD1 120055Z 06005KT 07/M12 A3032 RMK A01 T00671123  RH  024%=      5-min Rain = 0
KAD1 120056Z 06005KT 07/M12 A3032 RMK A01 T00671122  RH  024%=      5-min Rain = 0
KAD1 120057Z 06005KT 07/M12 A3032 RMK A01 T00671122  RH  024%=      5-min Rain = 0
KAD1 120058Z 06005KT 07/M12 A3032 RMK A01 T00661122  RH  025%=      5-min Rain = 0
KAD1 120059Z 05005KT 07/M12 A3032 RMK A01 T00661123  RH  025%=      5-min Rain = 0
KAD1 120100Z 06005KT 07/M12 A3032 RMK A01 T00661123  RH  025%=      5-min Rain = 0
KAD1 120101Z 06005KT 07/M12 A3032 RMK A01 T00661122  RH  025%=      5-min Rain = 0
KAD1 120102Z 06005KT 07/M12 A3032 RMK A01 T00651123  RH  025%=      5-min Rain = 0
KAD1 120103Z 06005KT 07/M12 A3032 RMK A01 T00651123  RH  025%=      5-min Rain = 0
KAD1 120104Z 06005KT 06/M12 A3032 RMK A01 T00641123  RH  025%=      5-min Rain = 0
KAD1 120105Z 06005KT 06/M12 A3032 RMK A01 T00641123  RH  025%=      5-min Rain = 0
KAD1 120106Z 06005KT 06/M12 A3032 RMK A01 T00641122  RH  025%=      5-min Rain = 0
KAD1 120107Z 06005KT 06/M12 A3032 RMK A01 T00641122  RH  025%=      5-min Rain = 0
KAD1 120108Z 06005KT 06/M12 A3032 RMK A01 T00631122  RH  025%=      5-min Rain = 0
KAD1 120109Z 06005KT 06/M12 A3032 RMK A01 T00621122  RH  025%=      5-min Rain = 0
KAD1 120110Z 06005KT 06/M12 A3032 RMK A01 T00621122  RH  025%=      5-min Rain = 0
KAD1 120111Z 06005KT 06/M12 A3032 RMK A01 T00621122  RH  025%=      5-min Rain = 0
KAD1 120112Z 06005KT 06/M12 A3032 RMK A01 T00621122  RH  025%=      5-min Rain = 0
KAD1 120113Z 06006KT 06/M12 A3032 RMK A01 T00621122  RH  025%=      5-min Rain = 0
KAD1 120114Z 06005KT 06/M12 A3032 RMK A01 T00631122  RH  025%=      5-min Rain = 0
KAD1 120115Z 06006KT 06/M12 A3032 RMK A01 T00631122  RH  025%=      5-min Rain = 0
KAD1 120116Z 06005KT 06/M12 A3032 RMK A01 T00631122  RH  025%=      5-min Rain = 0
KAD1 120117Z 06005KT 06/M12 A3032 RMK A01 T00641122  RH  025%=      5-min Rain = 0
KAD1 120118Z 06005KT 06/M12 A3032 RMK A01 T00641122  RH  025%=      5-min Rain = 0
KAD1 120119Z 07005KT 06/M12 A3032 RMK A01 T00631121  RH  025%=      5-min Rain = 0
KAD1 120120Z 06005KT 06/M12 A3032 RMK A01 T00621122  RH  025%=      5-min Rain = 0
KAD1 120121Z 06005KT 06/M12 A3032 RMK A01 T00611122  RH  026%=      5-min Rain = 0
KAD1 120122Z 06006KT 06/M12 A3032 RMK A01 T00611122  RH  026%=      5-min Rain = 0
KAD1 120123Z 06006KT 06/M12 A3032 RMK A01 T00611122  RH  026%=      5-min Rain = 0
KAD1 120124Z 06006KT 06/M12 A3032 RMK A01 T00611122  RH  026%=      5-min Rain = 0
KAD1 120125Z 06006KT 06/M12 A3032 RMK A01 T00601122  RH  026%=      5-min Rain = 0
KAD1 120126Z 06006KT 06/M12 A3032 RMK A01 T00601122  RH  026%=      5-min Rain = 0
KAD1 120127Z 06006KT 06/M12 A3032 RMK A01 T00601121  RH  026%=      5-min Rain = 0
KAD1 120128Z 06006KT 06/M12 A3033 RMK A01 T00601121  RH  026%=      5-min Rain = 0
KAD1 120129Z 06006KT 06/M12 A3033 RMK A01 T00601121  RH  026%=      5-min Rain = 0
KAD1 120130Z 06006KT 06/M12 A3033 RMK A01 T00601121  RH  026%=      5-min Rain = 0
KAD1 120131Z 06006KT 06/M12 A3033 RMK A01 T00591122  RH  026%=      5-min Rain = 0
KAD1 120132Z 06006KT 06/M12 A3033 RMK A01 T00581122  RH  026%=      5-min Rain = 0
KAD1 120133Z 06007KT 06/M12 A3033 RMK A01 T00571122  RH  026%=      5-min Rain = 0
KAD1 120134Z 06007KT 06/M12 A3033 RMK A01 T00571122  RH  026%=      5-min Rain = 0
KAD1 120135Z 07007KT 06/M12 A3033 RMK A01 T00561123  RH  026%=      5-min Rain = 0
KAD1 120136Z 06007KT 06/M12 A3033 RMK A01 T00561122  RH  026%=      5-min Rain = 0
KAD1 120137Z 06007KT 06/M12 A3033 RMK A01 T00551122  RH  027%=      5-min Rain = 0
KAD1 120138Z 06007KT 06/M12 A3033 RMK A01 T00561122  RH  027%=      5-min Rain = 0
KAD1 120139Z 06007KT 06/M12 A3033 RMK A01 T00551122  RH  027%=      5-min Rain = 0
KAD1 120140Z 06007KT 06/M12 A3033 RMK A01 T00551122  RH  027%=      5-min Rain = 0
KAD1 120141Z 06007KT 06/M12 A3033 RMK A01 T00551122  RH  027%=      5-min Rain = 0
KAD1 120142Z 06006KT 06/M12 A3033 RMK A01 T00551122  RH  027%=      5-min Rain = 0
KAD1 120143Z 06006KT 05/M12 A3033 RMK A01 T00541122  RH  027%=      5-min Rain = 0
KAD1 120144Z 06007KT 05/M12 A3033 RMK A01 T00531123  RH  027%=      5-min Rain = 0
KAD1 120145Z 06007KT 05/M12 A3033 RMK A01 T00531123  RH  027%=      5-min Rain = 0
KAD1 120146Z 06007KT 05/M12 A3033 RMK A01 T00531122  RH  027%=      5-min Rain = 0
KAD1 120147Z 06007KT 05/M12 A3033 RMK A01 T00521122  RH  027%=      5-min Rain = 0
KAD1 120148Z 06007KT 05/M12 A3033 RMK A01 T00521122  RH  027%=      5-min Rain = 0
KAD1 120149Z 06007KT 05/M12 A3033 RMK A01 T00521122  RH  027%=      5-min Rain = 0
KAD1 120150Z 06007KT 05/M12 A3033 RMK A01 T00521122  RH  027%=      5-min Rain = 0
KAD1 120151Z 07007KT 05/M12 A3033 RMK A01 T00521121  RH  027%=      5-min Rain = 0
KAD1 120152Z 06007KT 05/M12 A3033 RMK A01 T00511122  RH  027%=      5-min Rain = 0
KAD1 120153Z 06008KT 05/M12 A3033 RMK A01 T00511122  RH  027%=      5-min Rain = 0
KAD1 120154Z 06008KT 05/M12 A3033 RMK A01 T00511122  RH  027%=      5-min Rain = 0
KAD1 120155Z 06008KT 05/M12 A3033 RMK A01 T00511122  RH  027%=      5-min Rain = 0
KAD1 120156Z 06007KT 05/M12 A3033 RMK A01 T00511122  RH  027%=      5-min Rain = 0
KAD1 120157Z 06007KT 05/M12 A3033 RMK A01 T00521122  RH  027%=      5-min Rain = 0
KAD1 120158Z 07007KT 05/M12 A3033 RMK A01 T00521122  RH  027%=      5-min Rain = 0
KAD1 120159Z 07007KT 05/M12 A3033 RMK A01 T00511123  RH  027%=      5-min Rain = 0
KAD1 120200Z 07006KT 05/M12 A3034 RMK A01 T00521122  RH  027%=      5-min Rain = 0
KAD1 120201Z 07006KT 05/M12 A3034 RMK A01 T00521123  RH  027%=      5-min Rain = 0
KAD1 120202Z 07006KT 05/M12 A3034 RMK A01 T00511124  RH  027%=      5-min Rain = 0
KAD1 120203Z 07006KT 05/M12 A3034 RMK A01 T00511124  RH  027%=      5-min Rain = 0
KAD1 120204Z 07006KT 05/M13 A3034 RMK A01 T00511125  RH  027%=      5-min Rain = 0
KAD1 120205Z 07006KT 05/M13 A3034 RMK A01 T00511125  RH  027%=      5-min Rain = 0
KAD1 120206Z 07006KT 05/M13 A3034 RMK A01 T00521125  RH  027%=      5-min Rain = 0
KAD1 120207Z 07006KT 05/M13 A3034 RMK A01 T00511125  RH  027%=      5-min Rain = 0
KAD1 120208Z 07006KT 05/M13 A3034 RMK A01 T00511125  RH  027%=      5-min Rain = 0
KAD1 120209Z 07006KT 05/M13 A3034 RMK A01 T00511125  RH  027%=      5-min Rain = 0
KAD1 120210Z 07006KT 05/M13 A3034 RMK A01 T00511125  RH  027%=      5-min Rain = 0
KAD1 120211Z 07006KT 05/M13 A3034 RMK A01 T00501126  RH  027%=      5-min Rain = 0
KAD1 120212Z 07005KT 05/M13 A3034 RMK A01 T00501126  RH  027%=      5-min Rain = 0
KAD1 120213Z 07006KT 05/M13 A3034 RMK A01 T00501126  RH  027%=      5-min Rain = 0
KAD1 120214Z 07006KT 05/M13 A3034 RMK A01 T00491126  RH  027%=      5-min Rain = 0
KAD1 120215Z 07006KT 05/M13 A3034 RMK A01 T00491126  RH  027%=      5-min Rain = 0
KAD1 120216Z 07006KT 05/M13 A3034 RMK A01 T00501126  RH  027%=      5-min Rain = 0
KAD1 120217Z 07006KT 05/M13 A3034 RMK A01 T00491127  RH  027%=      5-min Rain = 0
KAD1 120218Z 07006KT 05/M13 A3034 RMK A01 T00501127  RH  027%=      5-min Rain = 0
KAD1 120219Z 07006KT 05/M13 A3034 RMK A01 T00491128  RH  027%=      5-min Rain = 0
KAD1 120220Z 07006KT 05/M13 A3034 RMK A01 T00491128  RH  026%=      5-min Rain = 0
KAD1 120221Z 07006KT 05/M13 A3034 RMK A01 T00481128  RH  027%=      5-min Rain = 0
KAD1 120222Z 07007KT 05/M13 A3034 RMK A01 T00481129  RH  026%=      5-min Rain = 0
KAD1 120223Z 07007KT 05/M13 A3034 RMK A01 T00481129  RH  026%=      5-min Rain = 0
KAD1 120224Z 08006KT 05/M13 A3034 RMK A01 T00481129  RH  026%=      5-min Rain = 0
KAD1 120225Z 07006KT 05/M13 A3034 RMK A01 T00481129  RH  026%=      5-min Rain = 0
KAD1 120226Z 08006KT 05/M13 A3034 RMK A01 T00481129  RH  026%=      5-min Rain = 0
KAD1 120227Z 08006KT 05/M13 A3034 RMK A01 T00481129  RH  026%=      5-min Rain = 0
KAD1 120228Z 08006KT 05/M13 A3034 RMK A01 T00481129  RH  026%=      5-min Rain = 0
KAD1 120229Z 08005KT 05/M13 A3034 RMK A01 T00481130  RH  026%=      5-min Rain = 0
KAD1 120230Z 09005KT 05/M13 A3034 RMK A01 T00471130  RH  026%=      5-min Rain = 0
KAD1 120231Z 09005KT 05/M13 A3034 RMK A01 T00471132  RH  026%=      5-min Rain = 0
KAD1 120232Z 09005KT 05/M13 A3034 RMK A01 T00461133  RH  026%=      5-min Rain = 0
KAD1 120233Z 08006KT 05/M14 A3034 RMK A01 T00461135  RH  026%=      5-min Rain = 0
KAD1 120234Z 08006KT 05/M13 A3034 RMK A01 T00461133  RH  026%=      5-min Rain = 0
KAD1 120235Z 08006KT 05/M13 A3034 RMK A01 T00461131  RH  026%=      5-min Rain = 0
KAD1 120236Z 08005KT 05/M13 A3034 RMK A01 T00471130  RH  027%=      5-min Rain = 0
KAD1 120237Z 08006KT 05/M13 A3034 RMK A01 T00471130  RH  027%=      5-min Rain = 0
KAD1 120238Z 08005KT 05/M13 A3034 RMK A01 T00471130  RH  027%=      5-min Rain = 0
KAD1 120239Z 09005KT 05/M13 A3034 RMK A01 T00461130  RH  027%=      5-min Rain = 0
KAD1 120240Z 08005KT 05/M13 A3034 RMK A01 T00461130  RH  027%=      5-min Rain = 0
KAD1 120241Z 08005KT 05/M13 A3034 RMK A01 T00461130  RH  026%=      5-min Rain = 0
KAD1 120242Z 09005KT 05/M13 A3034 RMK A01 T00461130  RH  026%=      5-min Rain = 0
KAD1 120243Z 09006KT 05/M13 A3034 RMK A01 T00471130  RH  026%=      5-min Rain = 0
KAD1 120244Z 09005KT 05/M13 A3034 RMK A01 T00471130  RH  026%=      5-min Rain = 0
KAD1 120245Z 09005KT 05/M13 A3034 RMK A01 T00471131  RH  026%=      5-min Rain = 0
KAD1 120246Z 09005KT 05/M13 A3034 RMK A01 T00471132  RH  026%=      5-min Rain = 0
KAD1 120247Z 09005KT 05/M13 A3034 RMK A01 T00471133  RH  026%=      5-min Rain = 0
KAD1 120248Z 09005KT 05/M13 A3034 RMK A01 T00471134  RH  025%=      5-min Rain = 0
KAD1 120249Z 09005KT 05/M14 A3034 RMK A01 T00471135  RH  025%=      5-min Rain = 0
KAD1 120250Z 09005KT 05/M13 A3034 RMK A01 T00471134  RH  025%=      5-min Rain = 0
KAD1 120251Z 09005KT 05/M13 A3034 RMK A01 T00471134  RH  026%=      5-min Rain = 0
KAD1 120252Z 09005KT 05/M13 A3034 RMK A01 T00471134  RH  026%=      5-min Rain = 0
KAD1 120253Z 09005KT 05/M13 A3034 RMK A01 T00471134  RH  026%=      5-min Rain = 0
KAD1 120254Z 09005KT 05/M13 A3034 RMK A01 T00471133  RH  026%=      5-min Rain = 0
KAD1 120255Z 09005KT 05/M13 A3034 RMK A01 T00471134  RH  026%=      5-min Rain = 0
KAD1 120256Z 08005KT 05/M13 A3034 RMK A01 T00471133  RH  026%=      5-min Rain = 0
KAD1 120257Z 08005KT 05/M13 A3034 RMK A01 T00471133  RH  026%=      5-min Rain = 0
KAD1 120258Z 08005KT 05/M13 A3035 RMK A01 T00471132  RH  026%=      5-min Rain = 0
KAD1 120259Z 09005KT 05/M13 A3035 RMK A01 T00471132  RH  026%=      5-min Rain = 0
KAD1 120300Z 09005KT 05/M13 A3035 RMK A01 T00461132  RH  026%=      5-min Rain = 0
KAD1 120301Z 09006KT 05/M13 A3035 RMK A01 T00461132  RH  026%=      5-min Rain = 0
KAD1 120302Z 09005KT 05/M13 A3035 RMK A01 T00461133  RH  026%=      5-min Rain = 0
KAD1 120303Z 10005KT 05/M14 A3035 RMK A01 T00451135  RH  026%=      5-min Rain = 0
KAD1 120304Z 10005KT 05/M14 A3035 RMK A01 T00451135  RH  026%=      5-min Rain = 0
KAD1 120305Z 10006KT 05/M14 A3035 RMK A01 T00451135  RH  026%=      5-min Rain = 0
KAD1 120306Z 10005KT 05/M14 A3034 RMK A01 T00451135  RH  026%=      5-min Rain = 0
KAD1 120307Z 10006KT 05/M14 A3034 RMK A01 T00451135  RH  026%=      5-min Rain = 0
KAD1 120308Z 10006KT 05/M14 A3035 RMK A01 T00451136  RH  026%=      5-min Rain = 0
KAD1 120309Z 10006KT 04/M14 A3035 RMK A01 T00441137  RH  025%=      5-min Rain = 0
KAD1 120310Z 10006KT 04/M14 A3035 RMK A01 T00441138  RH  025%=      5-min Rain = 0
KAD1 120311Z 10006KT 04/M14 A3035 RMK A01 T00441138  RH  025%=      5-min Rain = 0
KAD1 120312Z 10006KT 04/M14 A3035 RMK A01 T00431138  RH  025%=      5-min Rain = 0
KAD1 120313Z 10005KT 04/M14 A3034 RMK A01 T00431138  RH  025%=      5-min Rain = 0
KAD1 120314Z 10005KT 04/M14 A3034 RMK A01 T00431138  RH  025%=      5-min Rain = 0
KAD1 120315Z 10005KT 04/M14 A3034 RMK A01 T00431138  RH  025%=      5-min Rain = 0
KAD1 120316Z 10005KT 04/M14 A3034 RMK A01 T00431139  RH  025%=      5-min Rain = 0
KAD1 120317Z 10006KT 04/M14 A3034 RMK A01 T00431139  RH  025%=      5-min Rain = 0
KAD1 120318Z 10005KT 04/M14 A3034 RMK A01 T00431139  RH  025%=      5-min Rain = 0
KAD1 120319Z 10005KT 04/M14 A3034 RMK A01 T00421140  RH  025%=      5-min Rain = 0
KAD1 120320Z 10006KT 04/M14 A3034 RMK A01 T00421140  RH  025%=      5-min Rain = 0
KAD1 120321Z 10005KT 04/M14 A3034 RMK A01 T00421140  RH  025%=      5-min Rain = 0
KAD1 120322Z 10005KT 04/M14 A3034 RMK A01 T00421140  RH  025%=      5-min Rain = 0
KAD1 120323Z 10005KT 04/M14 A3034 RMK A01 T00421140  RH  025%=      5-min Rain = 0
KAD1 120324Z 10005KT 04/M14 A3035 RMK A01 T00421142  RH  025%=      5-min Rain = 0
KAD1 120325Z 11005KT 04/M14 A3035 RMK A01 T00411142  RH  025%=      5-min Rain = 0
KAD1 120326Z 11005KT 04/M14 A3035 RMK A01 T00411142  RH  025%=      5-min Rain = 0
KAD1 120327Z 11005KT 04/M14 A3035 RMK A01 T00411143  RH  025%=      5-min Rain = 0
KAD1 120328Z 11005KT 04/M14 A3035 RMK A01 T00401143  RH  025%=      5-min Rain = 0
KAD1 120329Z 11005KT 04/M14 A3035 RMK A01 T00401142  RH  025%=      5-min Rain = 0
KAD1 120330Z 11005KT 04/M14 A3035 RMK A01 T00401141  RH  025%=      5-min Rain = 0
KAD1 120331Z 11005KT 04/M14 A3035 RMK A01 T00391140  RH  026%=      5-min Rain = 0
KAD1 120332Z 11005KT 04/M14 A3035 RMK A01 T00391141  RH  026%=      5-min Rain = 0
KAD1 120333Z 11005KT 04/M14 A3035 RMK A01 T00391140  RH  026%=      5-min Rain = 0
KAD1 120334Z 11005KT 04/M14 A3035 RMK A01 T00391140  RH  026%=      5-min Rain = 0
KAD1 120335Z 11004KT 04/M14 A3035 RMK A01 T00391140  RH  026%=      5-min Rain = 0
KAD1 120336Z 11004KT 04/M14 A3035 RMK A01 T00391141  RH  026%=      5-min Rain = 0
KAD1 120337Z 11004KT 04/M14 A3035 RMK A01 T00381142  RH  025%=      5-min Rain = 0
KAD1 120338Z 11004KT 04/M14 A3035 RMK A01 T00381142  RH  026%=      5-min Rain = 0
KAD1 120339Z 11005KT 04/M14 A3035 RMK A01 T00381141  RH  026%=      5-min Rain = 0
KAD1 120340Z 11005KT 04/M14 A3035 RMK A01 T00381142  RH  026%=      5-min Rain = 0
KAD1 120341Z 11004KT 04/M14 A3035 RMK A01 T00371142  RH  026%=      5-min Rain = 0
KAD1 120342Z 11005KT 04/M14 A3035 RMK A01 T00371143  RH  026%=      5-min Rain = 0
KAD1 120343Z 11005KT 04/M14 A3035 RMK A01 T00371143  RH  026%=      5-min Rain = 0
KAD1 120344Z 11005KT 04/M14 A3035 RMK A01 T00371142  RH  026%=      5-min Rain = 0
KAD1 120345Z 11005KT 04/M14 A3035 RMK A01 T00371143  RH  026%=      5-min Rain = 0
KAD1 120346Z 11005KT 04/M14 A3035 RMK A01 T00371142  RH  026%=      5-min Rain = 0
KAD1 120347Z 11005KT 04/M14 A3035 RMK A01 T00371142  RH  026%=      5-min Rain = 0
KAD1 120348Z 11005KT 04/M14 A3036 RMK A01 T00361143  RH  026%=      5-min Rain = 0
KAD1 120349Z 11005KT 04/M14 A3036 RMK A01 T00361143  RH  026%=      5-min Rain = 0
KAD1 120350Z 11005KT 04/M14 A3036 RMK A01 T00361143  RH  026%=      5-min Rain = 0
KAD1 120351Z 11005KT 04/M14 A3036 RMK A01 T00361144  RH  025%=      5-min Rain = 0
KAD1 120352Z 11005KT 04/M14 A3036 RMK A01 T00361144  RH  025%=      5-min Rain = 0
KAD1 120353Z 11005KT 04/M14 A3036 RMK A01 T00361144  RH  025%=      5-min Rain = 0
KAD1 120354Z 11005KT 04/M14 A3036 RMK A01 T00371144  RH  025%=      5-min Rain = 0
KAD1 120355Z 11005KT 04/M14 A3036 RMK A01 T00391143  RH  025%=      5-min Rain = 0
KAD1 120356Z 11005KT 04/M14 A3036 RMK A01 T00401143  RH  025%=      5-min Rain = 0
KAD1 120357Z 11005KT 04/M14 A3036 RMK A01 T00411144  RH  025%=      5-min Rain = 0
KAD1 120358Z 11005KT 04/M14 A3036 RMK A01 T00411144  RH  025%=      5-min Rain = 0
KAD1 120359Z 11005KT 04/M14 A3036 RMK A01 T00411144  RH  025%=      5-min Rain = 0
KAD1 120400Z 11005KT 04/M14 A3036 RMK A01 T00411144  RH  025%=      5-min Rain = 0
KAD1 120401Z 11005KT 04/M14 A3036 RMK A01 T00421143  RH  025%=      5-min Rain = 0
KAD1 120402Z 12005KT 04/M14 A3036 RMK A01 T00421144  RH  024%=      5-min Rain = 0
KAD1 120403Z 12005KT 04/M14 A3036 RMK A01 T00411144  RH  024%=      5-min Rain = 0
KAD1 120404Z 12005KT 04/M14 A3036 RMK A01 T00401144  RH  025%=      5-min Rain = 0
KAD1 120405Z 12004KT 04/M14 A3036 RMK A01 T00401144  RH  025%=      5-min Rain = 0
KAD1 120406Z 12004KT 04/M15 A3036 RMK A01 T00391145  RH  025%=      5-min Rain = 0
KAD1 120407Z 12004KT 04/M15 A3036 RMK A01 T00391145  RH  025%=      5-min Rain = 0
KAD1 120408Z 12004KT 04/M15 A3036 RMK A01 T00381145  RH  025%=      5-min Rain = 0
KAD1 120409Z 12004KT 04/M15 A3036 RMK A01 T00381145  RH  025%=      5-min Rain = 0
KAD1 120410Z 13004KT 04/M15 A3036 RMK A01 T00381145  RH  025%=      5-min Rain = 0
KAD1 120411Z 13004KT 04/M15 A3036 RMK A01 T00381145  RH  025%=      5-min Rain = 0
KAD1 120412Z 13004KT 04/M15 A3036 RMK A01 T00371145  RH  025%=      5-min Rain = 0
KAD1 120413Z 14004KT 04/M14 A3036 RMK A01 T00371144  RH  025%=      5-min Rain = 0
KAD1 120414Z 14004KT 04/M14 A3036 RMK A01 T00371142  RH  026%=      5-min Rain = 0
KAD1 120415Z 14004KT 04/M14 A3036 RMK A01 T00371141  RH  026%=      5-min Rain = 0
KAD1 120416Z 14004KT 04/M14 A3036 RMK A01 T00381140  RH  026%=      5-min Rain = 0
KAD1 120417Z 14004KT 04/M14 A3036 RMK A01 T00381141  RH  026%=      5-min Rain = 0
KAD1 120418Z 14004KT 04/M14 A3036 RMK A01 T00381141  RH  026%=      5-min Rain = 0
KAD1 120419Z 14004KT 04/M14 A3036 RMK A01 T00381141  RH  026%=      5-min Rain = 0
KAD1 120420Z 14004KT 04/M14 A3036 RMK A01 T00391141  RH  026%=      5-min Rain = 0
KAD1 120421Z 13004KT 04/M14 A3036 RMK A01 T00391142  RH  025%=      5-min Rain = 0
KAD1 120422Z 13004KT 04/M14 A3036 RMK A01 T00381143  RH  025%=      5-min Rain = 0
KAD1 120423Z 13004KT 04/M15 A3036 RMK A01 T00371145  RH  025%=      5-min Rain = 0
KAD1 120424Z 13005KT 04/M15 A3036 RMK A01 T00361145  RH  025%=      5-min Rain = 0
KAD1 120425Z 13005KT 04/M15 A3036 RMK A01 T00351145  RH  025%=      5-min Rain = 0
KAD1 120426Z 13005KT 04/M15 A3036 RMK A01 T00351145  RH  025%=      5-min Rain = 0
KAD1 120427Z 12005KT 04/M15 A3036 RMK A01 T00351145  RH  025%=      5-min Rain = 0
KAD1 120428Z 12005KT 04/M15 A3036 RMK A01 T00351145  RH  025%=      5-min Rain = 0
KAD1 120429Z 12005KT 04/M15 A3036 RMK A01 T00351145  RH  025%=      5-min Rain = 0
KAD1 120430Z 12005KT 04/M15 A3036 RMK A01 T00351145  RH  025%=      5-min Rain = 0
KAD1 120431Z 12005KT 04/M15 A3036 RMK A01 T00351145  RH  025%=      5-min Rain = 0
KAD1 120432Z 12005KT 03/M15 A3036 RMK A01 T00341146  RH  025%=      5-min Rain = 0
KAD1 120433Z 12005KT 03/M15 A3036 RMK A01 T00341147  RH  025%=      5-min Rain = 0
KAD1 120434Z 12005KT 03/M15 A3036 RMK A01 T00331147  RH  025%=      5-min Rain = 0
KAD1 120435Z 12005KT 03/M15 A3036 RMK A01 T00331147  RH  025%=      5-min Rain = 0
KAD1 120436Z 12005KT 03/M15 A3036 RMK A01 T00331147  RH  025%=      5-min Rain = 0
KAD1 120437Z 12004KT 03/M15 A3036 RMK A01 T00341146  RH  025%=      5-min Rain = 0
KAD1 120438Z 12004KT 03/M15 A3036 RMK A01 T00341146  RH  025%=      5-min Rain = 0
KAD1 120439Z 13004KT 03/M15 A3036 RMK A01 T00341147  RH  025%=      5-min Rain = 0
KAD1 120440Z 13005KT 03/M15 A3036 RMK A01 T00341147  RH  025%=      5-min Rain = 0
KAD1 120441Z 13005KT 03/M15 A3036 RMK A01 T00341147  RH  025%=      5-min Rain = 0
KAD1 120442Z 13005KT 03/M15 A3037 RMK A01 T00341147  RH  025%=      5-min Rain = 0
KAD1 120443Z 13005KT 03/M15 A3037 RMK A01 T00341147  RH  025%=      5-min Rain = 0
KAD1 120444Z 13005KT 03/M15 A3037 RMK A01 T00331148  RH  025%=      5-min Rain = 0
KAD1 120445Z 13005KT 03/M15 A3037 RMK A01 T00331149  RH  025%=      5-min Rain = 0
KAD1 120446Z 13005KT 03/M15 A3037 RMK A01 T00321150  RH  025%=      5-min Rain = 0
KAD1 120447Z 12005KT 03/M15 A3037 RMK A01 T00311150  RH  025%=      5-min Rain = 0
KAD1 120448Z 12005KT 03/M15 A3037 RMK A01 T00311151  RH  025%=      5-min Rain = 0
KAD1 120449Z 12005KT 03/M15 A3037 RMK A01 T00301152  RH  025%=      5-min Rain = 0
KAD1 120450Z 12005KT 03/M15 A3037 RMK A01 T00291153  RH  025%=      5-min Rain = 0
KAD1 120451Z 12006KT 03/M15 A3037 RMK A01 T00281153  RH  025%=      5-min Rain = 0
KAD1 120452Z 12006KT 03/M15 A3037 RMK A01 T00271154  RH  025%=      5-min Rain = 0
KAD1 120453Z 12006KT 03/M16 A3037 RMK A01 T00251155  RH  025%=      5-min Rain = 0
KAD1 120454Z 12006KT 02/M16 A3037 RMK A01 T00241156  RH  025%=      5-min Rain = 0
KAD1 120455Z 12006KT 02/M16 A3037 RMK A01 T00231157  RH  025%=      5-min Rain = 0
KAD1 120456Z 12006KT 02/M16 A3037 RMK A01 T00221157  RH  025%=      5-min Rain = 0
KAD1 120457Z 12006KT 02/M16 A3037 RMK A01 T00221157  RH  025%=      5-min Rain = 0
KAD1 120458Z 12006KT 02/M16 A3037 RMK A01 T00211157  RH  025%=      5-min Rain = 0
KAD1 120459Z 12006KT 02/M16 A3036 RMK A01 T00201157  RH  026%=      5-min Rain = 0

Page generated in 0.0311 seconds.